<?xml version="1.0" encoding="UTF-8" standalone="no" ?>
<gpx xmlns="http://www.topografix.com/GPX/1/1" xmlns:xsi="http://www.w3.org/2001/XMLSchema-instance" xsi:schemaLocation="http://www.topografix.com/GPX/1/1 http://www.topografix.com/GPX/1/1/gpx.xsd" version="1.1" creator="VisuGPX - https://www.visugpx.com">
  <metadata>
    <name>29-10-29-46 puy l'Eveque2</name>
    <desc><![CDATA[Rando occitane grand circuit du matin 15km]]></desc>
  </metadata>
  <trk>
    <name><![CDATA[OR-8085260--Puy-l'Évêque:Rando Occitane 29-10-2017 ]]></name>
    <trkseg>
      <trkpt lat="44.50298" lon="1.13421">
        <ele>83</ele>
        <time>2017-11-06T09:08:03Z</time>
      </trkpt>
      <trkpt lat="44.50311" lon="1.13442">
        <ele>83</ele>
        <time>2017-11-06T09:10:03Z</time>
      </trkpt>
      <trkpt lat="44.50298" lon="1.1342">
        <ele>83</ele>
        <time>2017-11-06T09:12:03Z</time>
      </trkpt>
      <trkpt lat="44.50285" lon="1.13402">
        <ele>83</ele>
        <time>2017-11-06T09:14:03Z</time>
      </trkpt>
      <trkpt lat="44.50293" lon="1.13425">
        <ele>83</ele>
        <time>2017-11-06T09:16:03Z</time>
      </trkpt>
      <trkpt lat="44.50284" lon="1.13448">
        <ele>82</ele>
        <time>2017-11-06T09:18:03Z</time>
      </trkpt>
      <trkpt lat="44.50287" lon="1.13474">
        <ele>82</ele>
        <time>2017-11-06T09:20:03Z</time>
      </trkpt>
      <trkpt lat="44.50276" lon="1.13495">
        <ele>81</ele>
        <time>2017-11-06T09:22:03Z</time>
      </trkpt>
      <trkpt lat="44.50259" lon="1.13506">
        <ele>80</ele>
        <time>2017-11-06T09:24:03Z</time>
      </trkpt>
      <trkpt lat="44.50241" lon="1.13513">
        <ele>81</ele>
        <time>2017-11-06T09:26:03Z</time>
      </trkpt>
      <trkpt lat="44.50225" lon="1.13525">
        <ele>81</ele>
        <time>2017-11-06T09:28:03Z</time>
      </trkpt>
      <trkpt lat="44.50209" lon="1.13538">
        <ele>81</ele>
        <time>2017-11-06T09:30:03Z</time>
      </trkpt>
      <trkpt lat="44.50192" lon="1.1355">
        <ele>82</ele>
        <time>2017-11-06T09:32:03Z</time>
      </trkpt>
      <trkpt lat="44.50182" lon="1.13573">
        <ele>81</ele>
        <time>2017-11-06T09:34:03Z</time>
      </trkpt>
      <trkpt lat="44.50185" lon="1.13598">
        <ele>81</ele>
        <time>2017-11-06T09:36:03Z</time>
      </trkpt>
      <trkpt lat="44.5019" lon="1.13624">
        <ele>82</ele>
        <time>2017-11-06T09:38:03Z</time>
      </trkpt>
      <trkpt lat="44.50193" lon="1.13649">
        <ele>82</ele>
        <time>2017-11-06T09:40:03Z</time>
      </trkpt>
      <trkpt lat="44.502" lon="1.13674">
        <ele>83</ele>
        <time>2017-11-06T09:42:03Z</time>
      </trkpt>
      <trkpt lat="44.50207" lon="1.13698">
        <ele>84</ele>
        <time>2017-11-06T09:44:03Z</time>
      </trkpt>
      <trkpt lat="44.50204" lon="1.13726">
        <ele>86</ele>
        <time>2017-11-06T09:46:03Z</time>
      </trkpt>
      <trkpt lat="44.5021" lon="1.13752">
        <ele>88</ele>
        <time>2017-11-06T09:48:03Z</time>
      </trkpt>
      <trkpt lat="44.50213" lon="1.13776">
        <ele>90</ele>
        <time>2017-11-06T09:50:03Z</time>
      </trkpt>
      <trkpt lat="44.50219" lon="1.13801">
        <ele>92</ele>
        <time>2017-11-06T09:52:03Z</time>
      </trkpt>
      <trkpt lat="44.50256" lon="1.13812">
        <ele>90</ele>
        <time>2017-11-06T09:54:03Z</time>
      </trkpt>
      <trkpt lat="44.50274" lon="1.13815">
        <ele>93</ele>
        <time>2017-11-06T09:56:03Z</time>
      </trkpt>
      <trkpt lat="44.50277" lon="1.13841">
        <ele>93</ele>
        <time>2017-11-06T09:58:03Z</time>
      </trkpt>
      <trkpt lat="44.50278" lon="1.13867">
        <ele>94</ele>
        <time>2017-11-06T10:00:03Z</time>
      </trkpt>
      <trkpt lat="44.50277" lon="1.13895">
        <ele>95</ele>
        <time>2017-11-06T10:02:03Z</time>
      </trkpt>
      <trkpt lat="44.50272" lon="1.13921">
        <ele>95</ele>
        <time>2017-11-06T10:04:03Z</time>
      </trkpt>
      <trkpt lat="44.50281" lon="1.13945">
        <ele>97</ele>
        <time>2017-11-06T10:06:03Z</time>
      </trkpt>
      <trkpt lat="44.5028" lon="1.13971">
        <ele>97</ele>
        <time>2017-11-06T10:08:03Z</time>
      </trkpt>
      <trkpt lat="44.50276" lon="1.14">
        <ele>97</ele>
        <time>2017-11-06T10:10:03Z</time>
      </trkpt>
      <trkpt lat="44.5027" lon="1.14026">
        <ele>97</ele>
        <time>2017-11-06T10:12:03Z</time>
      </trkpt>
      <trkpt lat="44.50259" lon="1.14048">
        <ele>96</ele>
        <time>2017-11-06T10:14:03Z</time>
      </trkpt>
      <trkpt lat="44.50255" lon="1.14073">
        <ele>95</ele>
        <time>2017-11-06T10:16:03Z</time>
      </trkpt>
      <trkpt lat="44.50242" lon="1.14091">
        <ele>95</ele>
        <time>2017-11-06T10:18:03Z</time>
      </trkpt>
      <trkpt lat="44.50231" lon="1.14114">
        <ele>96</ele>
        <time>2017-11-06T10:20:03Z</time>
      </trkpt>
      <trkpt lat="44.5023" lon="1.14142">
        <ele>97</ele>
        <time>2017-11-06T10:22:03Z</time>
      </trkpt>
      <trkpt lat="44.50222" lon="1.14166">
        <ele>98</ele>
        <time>2017-11-06T10:24:03Z</time>
      </trkpt>
      <trkpt lat="44.50217" lon="1.14191">
        <ele>101</ele>
        <time>2017-11-06T10:26:03Z</time>
      </trkpt>
      <trkpt lat="44.502" lon="1.14205">
        <ele>101</ele>
        <time>2017-11-06T10:28:03Z</time>
      </trkpt>
      <trkpt lat="44.50183" lon="1.14207">
        <ele>99</ele>
        <time>2017-11-06T10:30:03Z</time>
      </trkpt>
      <trkpt lat="44.50201" lon="1.14207">
        <ele>101</ele>
        <time>2017-11-06T10:32:03Z</time>
      </trkpt>
      <trkpt lat="44.50219" lon="1.14206">
        <ele>104</ele>
        <time>2017-11-06T10:34:03Z</time>
      </trkpt>
      <trkpt lat="44.50237" lon="1.14196">
        <ele>104</ele>
        <time>2017-11-06T10:36:03Z</time>
      </trkpt>
      <trkpt lat="44.5025" lon="1.14177">
        <ele>102</ele>
        <time>2017-11-06T10:38:03Z</time>
      </trkpt>
      <trkpt lat="44.50267" lon="1.14168">
        <ele>106</ele>
        <time>2017-11-06T10:40:03Z</time>
      </trkpt>
      <trkpt lat="44.50273" lon="1.14144">
        <ele>105</ele>
        <time>2017-11-06T10:42:03Z</time>
      </trkpt>
      <trkpt lat="44.50291" lon="1.14135">
        <ele>110</ele>
        <time>2017-11-06T10:44:03Z</time>
      </trkpt>
      <trkpt lat="44.50291" lon="1.14109">
        <ele>107</ele>
        <time>2017-11-06T10:46:03Z</time>
      </trkpt>
      <trkpt lat="44.50298" lon="1.14085">
        <ele>106</ele>
        <time>2017-11-06T10:48:03Z</time>
      </trkpt>
      <trkpt lat="44.50309" lon="1.14064">
        <ele>107</ele>
        <time>2017-11-06T10:50:03Z</time>
      </trkpt>
      <trkpt lat="44.50312" lon="1.14039">
        <ele>106</ele>
        <time>2017-11-06T10:52:03Z</time>
      </trkpt>
      <trkpt lat="44.50324" lon="1.13988">
        <ele>105</ele>
        <time>2017-11-06T10:54:03Z</time>
      </trkpt>
      <trkpt lat="44.50342" lon="1.13986">
        <ele>108</ele>
        <time>2017-11-06T10:56:03Z</time>
      </trkpt>
      <trkpt lat="44.50365" lon="1.13996">
        <ele>113</ele>
        <time>2017-11-06T10:58:03Z</time>
      </trkpt>
      <trkpt lat="44.50367" lon="1.13971">
        <ele>113</ele>
        <time>2017-11-06T11:00:03Z</time>
      </trkpt>
      <trkpt lat="44.50367" lon="1.13945">
        <ele>111</ele>
        <time>2017-11-06T11:02:03Z</time>
      </trkpt>
      <trkpt lat="44.50383" lon="1.1393">
        <ele>114</ele>
        <time>2017-11-06T11:04:03Z</time>
      </trkpt>
      <trkpt lat="44.50401" lon="1.13936">
        <ele>119</ele>
        <time>2017-11-06T11:06:03Z</time>
      </trkpt>
      <trkpt lat="44.5042" lon="1.13934">
        <ele>123</ele>
        <time>2017-11-06T11:08:03Z</time>
      </trkpt>
      <trkpt lat="44.50438" lon="1.13924">
        <ele>125</ele>
        <time>2017-11-06T11:10:03Z</time>
      </trkpt>
      <trkpt lat="44.50455" lon="1.13911">
        <ele>126</ele>
        <time>2017-11-06T11:12:03Z</time>
      </trkpt>
      <trkpt lat="44.50473" lon="1.13913">
        <ele>128</ele>
        <time>2017-11-06T11:14:03Z</time>
      </trkpt>
      <trkpt lat="44.50491" lon="1.13922">
        <ele>131</ele>
        <time>2017-11-06T11:16:03Z</time>
      </trkpt>
      <trkpt lat="44.50509" lon="1.1393">
        <ele>132</ele>
        <time>2017-11-06T11:18:03Z</time>
      </trkpt>
      <trkpt lat="44.50518" lon="1.13953">
        <ele>132</ele>
        <time>2017-11-06T11:20:03Z</time>
      </trkpt>
      <trkpt lat="44.5055" lon="1.1398">
        <ele>132</ele>
        <time>2017-11-06T11:22:03Z</time>
      </trkpt>
      <trkpt lat="44.50568" lon="1.13985">
        <ele>132</ele>
        <time>2017-11-06T11:24:03Z</time>
      </trkpt>
      <trkpt lat="44.50604" lon="1.13997">
        <ele>133</ele>
        <time>2017-11-06T11:26:03Z</time>
      </trkpt>
      <trkpt lat="44.50626" lon="1.14003">
        <ele>134</ele>
        <time>2017-11-06T11:28:03Z</time>
      </trkpt>
      <trkpt lat="44.50644" lon="1.14008">
        <ele>134</ele>
        <time>2017-11-06T11:30:03Z</time>
      </trkpt>
      <trkpt lat="44.50662" lon="1.14018">
        <ele>135</ele>
        <time>2017-11-06T11:32:03Z</time>
      </trkpt>
      <trkpt lat="44.50659" lon="1.14045">
        <ele>137</ele>
        <time>2017-11-06T11:34:03Z</time>
      </trkpt>
      <trkpt lat="44.50656" lon="1.14071">
        <ele>139</ele>
        <time>2017-11-06T11:36:03Z</time>
      </trkpt>
      <trkpt lat="44.50655" lon="1.14097">
        <ele>140</ele>
        <time>2017-11-06T11:38:03Z</time>
      </trkpt>
      <trkpt lat="44.5066" lon="1.1415">
        <ele>142</ele>
        <time>2017-11-06T11:40:03Z</time>
      </trkpt>
      <trkpt lat="44.50674" lon="1.14167">
        <ele>143</ele>
        <time>2017-11-06T11:42:03Z</time>
      </trkpt>
      <trkpt lat="44.50688" lon="1.14185">
        <ele>143</ele>
        <time>2017-11-06T11:44:03Z</time>
      </trkpt>
      <trkpt lat="44.50724" lon="1.14174">
        <ele>146</ele>
        <time>2017-11-06T11:46:03Z</time>
      </trkpt>
      <trkpt lat="44.50742" lon="1.14168">
        <ele>147</ele>
        <time>2017-11-06T11:48:03Z</time>
      </trkpt>
      <trkpt lat="44.5076" lon="1.14162">
        <ele>149</ele>
        <time>2017-11-06T11:50:03Z</time>
      </trkpt>
      <trkpt lat="44.50796" lon="1.14145">
        <ele>153</ele>
        <time>2017-11-06T11:52:03Z</time>
      </trkpt>
      <trkpt lat="44.50816" lon="1.14143">
        <ele>155</ele>
        <time>2017-11-06T11:54:03Z</time>
      </trkpt>
      <trkpt lat="44.50834" lon="1.14133">
        <ele>157</ele>
        <time>2017-11-06T11:56:03Z</time>
      </trkpt>
      <trkpt lat="44.50852" lon="1.14128">
        <ele>158</ele>
        <time>2017-11-06T11:58:03Z</time>
      </trkpt>
      <trkpt lat="44.5087" lon="1.14123">
        <ele>159</ele>
        <time>2017-11-06T12:00:03Z</time>
      </trkpt>
      <trkpt lat="44.50888" lon="1.14129">
        <ele>160</ele>
        <time>2017-11-06T12:02:03Z</time>
      </trkpt>
      <trkpt lat="44.50905" lon="1.14118">
        <ele>162</ele>
        <time>2017-11-06T12:04:03Z</time>
      </trkpt>
      <trkpt lat="44.5092" lon="1.14103">
        <ele>164</ele>
        <time>2017-11-06T12:06:03Z</time>
      </trkpt>
      <trkpt lat="44.50928" lon="1.1408">
        <ele>166</ele>
        <time>2017-11-06T12:08:03Z</time>
      </trkpt>
      <trkpt lat="44.50941" lon="1.14063">
        <ele>165</ele>
        <time>2017-11-06T12:10:03Z</time>
      </trkpt>
      <trkpt lat="44.50945" lon="1.14036">
        <ele>163</ele>
        <time>2017-11-06T12:12:03Z</time>
      </trkpt>
      <trkpt lat="44.50954" lon="1.14014">
        <ele>163</ele>
        <time>2017-11-06T12:14:03Z</time>
      </trkpt>
      <trkpt lat="44.5097" lon="1.13999">
        <ele>164</ele>
        <time>2017-11-06T12:16:03Z</time>
      </trkpt>
      <trkpt lat="44.5098" lon="1.13977">
        <ele>164</ele>
        <time>2017-11-06T12:18:03Z</time>
      </trkpt>
      <trkpt lat="44.50985" lon="1.13952">
        <ele>163</ele>
        <time>2017-11-06T12:20:03Z</time>
      </trkpt>
      <trkpt lat="44.51002" lon="1.13937">
        <ele>164</ele>
        <time>2017-11-06T12:22:03Z</time>
      </trkpt>
      <trkpt lat="44.51014" lon="1.13917">
        <ele>164</ele>
        <time>2017-11-06T12:24:03Z</time>
      </trkpt>
      <trkpt lat="44.51027" lon="1.13899">
        <ele>163</ele>
        <time>2017-11-06T12:26:03Z</time>
      </trkpt>
      <trkpt lat="44.5104" lon="1.13879">
        <ele>163</ele>
        <time>2017-11-06T12:28:03Z</time>
      </trkpt>
      <trkpt lat="44.51054" lon="1.13862">
        <ele>163</ele>
        <time>2017-11-06T12:30:03Z</time>
      </trkpt>
      <trkpt lat="44.51066" lon="1.13842">
        <ele>163</ele>
        <time>2017-11-06T12:32:03Z</time>
      </trkpt>
      <trkpt lat="44.51081" lon="1.13825">
        <ele>164</ele>
        <time>2017-11-06T12:34:03Z</time>
      </trkpt>
      <trkpt lat="44.5109" lon="1.13803">
        <ele>163</ele>
        <time>2017-11-06T12:36:03Z</time>
      </trkpt>
      <trkpt lat="44.51106" lon="1.13791">
        <ele>163</ele>
        <time>2017-11-06T12:38:03Z</time>
      </trkpt>
      <trkpt lat="44.51113" lon="1.13767">
        <ele>162</ele>
        <time>2017-11-06T12:40:03Z</time>
      </trkpt>
      <trkpt lat="44.51122" lon="1.13743">
        <ele>162</ele>
        <time>2017-11-06T12:42:03Z</time>
      </trkpt>
      <trkpt lat="44.51134" lon="1.13725">
        <ele>163</ele>
        <time>2017-11-06T12:44:03Z</time>
      </trkpt>
      <trkpt lat="44.51149" lon="1.13707">
        <ele>165</ele>
        <time>2017-11-06T12:46:03Z</time>
      </trkpt>
      <trkpt lat="44.51145" lon="1.13682">
        <ele>165</ele>
        <time>2017-11-06T12:48:03Z</time>
      </trkpt>
      <trkpt lat="44.51151" lon="1.13658">
        <ele>167</ele>
        <time>2017-11-06T12:50:03Z</time>
      </trkpt>
      <trkpt lat="44.51165" lon="1.13639">
        <ele>169</ele>
        <time>2017-11-06T12:52:03Z</time>
      </trkpt>
      <trkpt lat="44.51174" lon="1.13617">
        <ele>170</ele>
        <time>2017-11-06T12:54:03Z</time>
      </trkpt>
      <trkpt lat="44.51191" lon="1.13605">
        <ele>170</ele>
        <time>2017-11-06T12:56:03Z</time>
      </trkpt>
      <trkpt lat="44.51205" lon="1.13587">
        <ele>172</ele>
        <time>2017-11-06T12:58:03Z</time>
      </trkpt>
      <trkpt lat="44.5122" lon="1.13572">
        <ele>173</ele>
        <time>2017-11-06T13:00:03Z</time>
      </trkpt>
      <trkpt lat="44.51232" lon="1.13552">
        <ele>174</ele>
        <time>2017-11-06T13:02:03Z</time>
      </trkpt>
      <trkpt lat="44.51229" lon="1.13526">
        <ele>175</ele>
        <time>2017-11-06T13:04:03Z</time>
      </trkpt>
      <trkpt lat="44.51232" lon="1.135">
        <ele>176</ele>
        <time>2017-11-06T13:06:03Z</time>
      </trkpt>
      <trkpt lat="44.51242" lon="1.13479">
        <ele>178</ele>
        <time>2017-11-06T13:08:03Z</time>
      </trkpt>
      <trkpt lat="44.51247" lon="1.13454">
        <ele>180</ele>
        <time>2017-11-06T13:10:03Z</time>
      </trkpt>
      <trkpt lat="44.51258" lon="1.13432">
        <ele>182</ele>
        <time>2017-11-06T13:12:03Z</time>
      </trkpt>
      <trkpt lat="44.51268" lon="1.13409">
        <ele>183</ele>
        <time>2017-11-06T13:14:03Z</time>
      </trkpt>
      <trkpt lat="44.51284" lon="1.13394">
        <ele>183</ele>
        <time>2017-11-06T13:16:03Z</time>
      </trkpt>
      <trkpt lat="44.51299" lon="1.13376">
        <ele>185</ele>
        <time>2017-11-06T13:18:03Z</time>
      </trkpt>
      <trkpt lat="44.51311" lon="1.13357">
        <ele>186</ele>
        <time>2017-11-06T13:20:03Z</time>
      </trkpt>
      <trkpt lat="44.51335" lon="1.13317">
        <ele>190</ele>
        <time>2017-11-06T13:22:03Z</time>
      </trkpt>
      <trkpt lat="44.51348" lon="1.13299">
        <ele>192</ele>
        <time>2017-11-06T13:24:03Z</time>
      </trkpt>
      <trkpt lat="44.51365" lon="1.13286">
        <ele>193</ele>
        <time>2017-11-06T13:26:03Z</time>
      </trkpt>
      <trkpt lat="44.51382" lon="1.13274">
        <ele>194</ele>
        <time>2017-11-06T13:28:03Z</time>
      </trkpt>
      <trkpt lat="44.514" lon="1.13264">
        <ele>194</ele>
        <time>2017-11-06T13:30:03Z</time>
      </trkpt>
      <trkpt lat="44.51415" lon="1.1325">
        <ele>195</ele>
        <time>2017-11-06T13:32:03Z</time>
      </trkpt>
      <trkpt lat="44.51433" lon="1.13241">
        <ele>197</ele>
        <time>2017-11-06T13:34:03Z</time>
      </trkpt>
      <trkpt lat="44.51451" lon="1.13235">
        <ele>200</ele>
        <time>2017-11-06T13:36:03Z</time>
      </trkpt>
      <trkpt lat="44.51468" lon="1.13225">
        <ele>202</ele>
        <time>2017-11-06T13:38:03Z</time>
      </trkpt>
      <trkpt lat="44.51484" lon="1.1321">
        <ele>204</ele>
        <time>2017-11-06T13:40:03Z</time>
      </trkpt>
      <trkpt lat="44.515" lon="1.13196">
        <ele>206</ele>
        <time>2017-11-06T13:42:03Z</time>
      </trkpt>
      <trkpt lat="44.51516" lon="1.13185">
        <ele>209</ele>
        <time>2017-11-06T13:44:03Z</time>
      </trkpt>
      <trkpt lat="44.51527" lon="1.13164">
        <ele>211</ele>
        <time>2017-11-06T13:46:03Z</time>
      </trkpt>
      <trkpt lat="44.51547" lon="1.13154">
        <ele>213</ele>
        <time>2017-11-06T13:48:03Z</time>
      </trkpt>
      <trkpt lat="44.51566" lon="1.1315">
        <ele>216</ele>
        <time>2017-11-06T13:50:03Z</time>
      </trkpt>
      <trkpt lat="44.51583" lon="1.13139">
        <ele>217</ele>
        <time>2017-11-06T13:52:03Z</time>
      </trkpt>
      <trkpt lat="44.51601" lon="1.13138">
        <ele>218</ele>
        <time>2017-11-06T13:54:03Z</time>
      </trkpt>
      <trkpt lat="44.51621" lon="1.13139">
        <ele>219</ele>
        <time>2017-11-06T13:56:03Z</time>
      </trkpt>
      <trkpt lat="44.5164" lon="1.1313">
        <ele>219</ele>
        <time>2017-11-06T13:58:03Z</time>
      </trkpt>
      <trkpt lat="44.51658" lon="1.13133">
        <ele>220</ele>
        <time>2017-11-06T14:00:03Z</time>
      </trkpt>
      <trkpt lat="44.51677" lon="1.13133">
        <ele>220</ele>
        <time>2017-11-06T14:02:03Z</time>
      </trkpt>
      <trkpt lat="44.51695" lon="1.13127">
        <ele>218</ele>
        <time>2017-11-06T14:04:03Z</time>
      </trkpt>
      <trkpt lat="44.51714" lon="1.13127">
        <ele>217</ele>
        <time>2017-11-06T14:06:03Z</time>
      </trkpt>
      <trkpt lat="44.51733" lon="1.1313">
        <ele>215</ele>
        <time>2017-11-06T14:08:03Z</time>
      </trkpt>
      <trkpt lat="44.51753" lon="1.13124">
        <ele>214</ele>
        <time>2017-11-06T14:10:03Z</time>
      </trkpt>
      <trkpt lat="44.5177" lon="1.13135">
        <ele>214</ele>
        <time>2017-11-06T14:12:03Z</time>
      </trkpt>
      <trkpt lat="44.51788" lon="1.13141">
        <ele>213</ele>
        <time>2017-11-06T14:14:03Z</time>
      </trkpt>
      <trkpt lat="44.51807" lon="1.13145">
        <ele>212</ele>
        <time>2017-11-06T14:16:03Z</time>
      </trkpt>
      <trkpt lat="44.51826" lon="1.13145">
        <ele>211</ele>
        <time>2017-11-06T14:18:03Z</time>
      </trkpt>
      <trkpt lat="44.51845" lon="1.13147">
        <ele>211</ele>
        <time>2017-11-06T14:20:03Z</time>
      </trkpt>
      <trkpt lat="44.51865" lon="1.1315">
        <ele>210</ele>
        <time>2017-11-06T14:22:03Z</time>
      </trkpt>
      <trkpt lat="44.51883" lon="1.13152">
        <ele>210</ele>
        <time>2017-11-06T14:24:03Z</time>
      </trkpt>
      <trkpt lat="44.51899" lon="1.13166">
        <ele>208</ele>
        <time>2017-11-06T14:26:03Z</time>
      </trkpt>
      <trkpt lat="44.51918" lon="1.13174">
        <ele>208</ele>
        <time>2017-11-06T14:28:03Z</time>
      </trkpt>
      <trkpt lat="44.51923" lon="1.13199">
        <ele>206</ele>
        <time>2017-11-06T14:30:03Z</time>
      </trkpt>
      <trkpt lat="44.51919" lon="1.13224">
        <ele>204</ele>
        <time>2017-11-06T14:32:03Z</time>
      </trkpt>
      <trkpt lat="44.51918" lon="1.1325">
        <ele>201</ele>
        <time>2017-11-06T14:34:03Z</time>
      </trkpt>
      <trkpt lat="44.51935" lon="1.13296">
        <ele>203</ele>
        <time>2017-11-06T14:36:03Z</time>
      </trkpt>
      <trkpt lat="44.51951" lon="1.13311">
        <ele>205</ele>
        <time>2017-11-06T14:38:03Z</time>
      </trkpt>
      <trkpt lat="44.51968" lon="1.13323">
        <ele>207</ele>
        <time>2017-11-06T14:40:03Z</time>
      </trkpt>
      <trkpt lat="44.51983" lon="1.13336">
        <ele>208</ele>
        <time>2017-11-06T14:42:03Z</time>
      </trkpt>
      <trkpt lat="44.51998" lon="1.13351">
        <ele>209</ele>
        <time>2017-11-06T14:44:03Z</time>
      </trkpt>
      <trkpt lat="44.52014" lon="1.13365">
        <ele>207</ele>
        <time>2017-11-06T14:46:03Z</time>
      </trkpt>
      <trkpt lat="44.52033" lon="1.13366">
        <ele>206</ele>
        <time>2017-11-06T14:48:03Z</time>
      </trkpt>
      <trkpt lat="44.52051" lon="1.13359">
        <ele>207</ele>
        <time>2017-11-06T14:50:03Z</time>
      </trkpt>
      <trkpt lat="44.52068" lon="1.1335">
        <ele>208</ele>
        <time>2017-11-06T14:52:03Z</time>
      </trkpt>
      <trkpt lat="44.52086" lon="1.13343">
        <ele>209</ele>
        <time>2017-11-06T14:54:03Z</time>
      </trkpt>
      <trkpt lat="44.52105" lon="1.1334">
        <ele>207</ele>
        <time>2017-11-06T14:56:03Z</time>
      </trkpt>
      <trkpt lat="44.52123" lon="1.13336">
        <ele>205</ele>
        <time>2017-11-06T14:58:03Z</time>
      </trkpt>
      <trkpt lat="44.52139" lon="1.13323">
        <ele>205</ele>
        <time>2017-11-06T15:00:03Z</time>
      </trkpt>
      <trkpt lat="44.52155" lon="1.13314">
        <ele>205</ele>
        <time>2017-11-06T15:02:03Z</time>
      </trkpt>
      <trkpt lat="44.52175" lon="1.13311">
        <ele>204</ele>
        <time>2017-11-06T15:04:03Z</time>
      </trkpt>
      <trkpt lat="44.52194" lon="1.13305">
        <ele>205</ele>
        <time>2017-11-06T15:06:03Z</time>
      </trkpt>
      <trkpt lat="44.52213" lon="1.13303">
        <ele>205</ele>
        <time>2017-11-06T15:08:03Z</time>
      </trkpt>
      <trkpt lat="44.52232" lon="1.13305">
        <ele>205</ele>
        <time>2017-11-06T15:10:03Z</time>
      </trkpt>
      <trkpt lat="44.52251" lon="1.13311">
        <ele>204</ele>
        <time>2017-11-06T15:12:03Z</time>
      </trkpt>
      <trkpt lat="44.52273" lon="1.13306">
        <ele>206</ele>
        <time>2017-11-06T15:14:03Z</time>
      </trkpt>
      <trkpt lat="44.52288" lon="1.13293">
        <ele>208</ele>
        <time>2017-11-06T15:16:03Z</time>
      </trkpt>
      <trkpt lat="44.52305" lon="1.13281">
        <ele>211</ele>
        <time>2017-11-06T15:18:03Z</time>
      </trkpt>
      <trkpt lat="44.52317" lon="1.13262">
        <ele>214</ele>
        <time>2017-11-06T15:20:03Z</time>
      </trkpt>
      <trkpt lat="44.52334" lon="1.1325">
        <ele>216</ele>
        <time>2017-11-06T15:22:03Z</time>
      </trkpt>
      <trkpt lat="44.52351" lon="1.13241">
        <ele>219</ele>
        <time>2017-11-06T15:24:03Z</time>
      </trkpt>
      <trkpt lat="44.52369" lon="1.13239">
        <ele>220</ele>
        <time>2017-11-06T15:26:03Z</time>
      </trkpt>
      <trkpt lat="44.52387" lon="1.13246">
        <ele>220</ele>
        <time>2017-11-06T15:28:03Z</time>
      </trkpt>
      <trkpt lat="44.52405" lon="1.13257">
        <ele>221</ele>
        <time>2017-11-06T15:30:03Z</time>
      </trkpt>
      <trkpt lat="44.52422" lon="1.13265">
        <ele>221</ele>
        <time>2017-11-06T15:32:03Z</time>
      </trkpt>
      <trkpt lat="44.5244" lon="1.13262">
        <ele>222</ele>
        <time>2017-11-06T15:34:03Z</time>
      </trkpt>
      <trkpt lat="44.52458" lon="1.13262">
        <ele>222</ele>
        <time>2017-11-06T15:36:03Z</time>
      </trkpt>
      <trkpt lat="44.52476" lon="1.13257">
        <ele>223</ele>
        <time>2017-11-06T15:38:03Z</time>
      </trkpt>
      <trkpt lat="44.52489" lon="1.13237">
        <ele>225</ele>
        <time>2017-11-06T15:40:03Z</time>
      </trkpt>
      <trkpt lat="44.52509" lon="1.13231">
        <ele>225</ele>
        <time>2017-11-06T15:42:03Z</time>
      </trkpt>
      <trkpt lat="44.52524" lon="1.13211">
        <ele>225</ele>
        <time>2017-11-06T15:44:03Z</time>
      </trkpt>
      <trkpt lat="44.52541" lon="1.13204">
        <ele>224</ele>
        <time>2017-11-06T15:46:03Z</time>
      </trkpt>
      <trkpt lat="44.5256" lon="1.13209">
        <ele>221</ele>
        <time>2017-11-06T15:48:03Z</time>
      </trkpt>
      <trkpt lat="44.52579" lon="1.13215">
        <ele>217</ele>
        <time>2017-11-06T15:50:03Z</time>
      </trkpt>
      <trkpt lat="44.52595" lon="1.13227">
        <ele>214</ele>
        <time>2017-11-06T15:52:03Z</time>
      </trkpt>
      <trkpt lat="44.52613" lon="1.13237">
        <ele>212</ele>
        <time>2017-11-06T15:54:03Z</time>
      </trkpt>
      <trkpt lat="44.52631" lon="1.13239">
        <ele>212</ele>
        <time>2017-11-06T15:56:03Z</time>
      </trkpt>
      <trkpt lat="44.5265" lon="1.13234">
        <ele>211</ele>
        <time>2017-11-06T15:58:03Z</time>
      </trkpt>
      <trkpt lat="44.52667" lon="1.13226">
        <ele>210</ele>
        <time>2017-11-06T16:00:03Z</time>
      </trkpt>
      <trkpt lat="44.52684" lon="1.13214">
        <ele>209</ele>
        <time>2017-11-06T16:02:03Z</time>
      </trkpt>
      <trkpt lat="44.52701" lon="1.13205">
        <ele>208</ele>
        <time>2017-11-06T16:04:03Z</time>
      </trkpt>
      <trkpt lat="44.52719" lon="1.13209">
        <ele>206</ele>
        <time>2017-11-06T16:06:03Z</time>
      </trkpt>
      <trkpt lat="44.5273" lon="1.1323">
        <ele>205</ele>
        <time>2017-11-06T16:08:03Z</time>
      </trkpt>
      <trkpt lat="44.52732" lon="1.13256">
        <ele>203</ele>
        <time>2017-11-06T16:10:03Z</time>
      </trkpt>
      <trkpt lat="44.52751" lon="1.13264">
        <ele>201</ele>
        <time>2017-11-06T16:12:03Z</time>
      </trkpt>
      <trkpt lat="44.52767" lon="1.13274">
        <ele>202</ele>
        <time>2017-11-06T16:14:03Z</time>
      </trkpt>
      <trkpt lat="44.52786" lon="1.13274">
        <ele>204</ele>
        <time>2017-11-06T16:16:03Z</time>
      </trkpt>
      <trkpt lat="44.52792" lon="1.13301">
        <ele>203</ele>
        <time>2017-11-06T16:18:03Z</time>
      </trkpt>
      <trkpt lat="44.5279" lon="1.13327">
        <ele>202</ele>
        <time>2017-11-06T16:20:03Z</time>
      </trkpt>
      <trkpt lat="44.52796" lon="1.13351">
        <ele>201</ele>
        <time>2017-11-06T16:22:03Z</time>
      </trkpt>
      <trkpt lat="44.52812" lon="1.13364">
        <ele>202</ele>
        <time>2017-11-06T16:24:03Z</time>
      </trkpt>
      <trkpt lat="44.5283" lon="1.13369">
        <ele>204</ele>
        <time>2017-11-06T16:26:03Z</time>
      </trkpt>
      <trkpt lat="44.52848" lon="1.13373">
        <ele>207</ele>
        <time>2017-11-06T16:28:03Z</time>
      </trkpt>
      <trkpt lat="44.52867" lon="1.13372">
        <ele>209</ele>
        <time>2017-11-06T16:30:03Z</time>
      </trkpt>
      <trkpt lat="44.52886" lon="1.1337">
        <ele>212</ele>
        <time>2017-11-06T16:32:03Z</time>
      </trkpt>
      <trkpt lat="44.52941" lon="1.13362">
        <ele>219</ele>
        <time>2017-11-06T16:34:03Z</time>
      </trkpt>
      <trkpt lat="44.5296" lon="1.13358">
        <ele>221</ele>
        <time>2017-11-06T16:36:03Z</time>
      </trkpt>
      <trkpt lat="44.52979" lon="1.13353">
        <ele>223</ele>
        <time>2017-11-06T16:38:03Z</time>
      </trkpt>
      <trkpt lat="44.52993" lon="1.13369">
        <ele>224</ele>
        <time>2017-11-06T16:40:03Z</time>
      </trkpt>
      <trkpt lat="44.53" lon="1.13394">
        <ele>224</ele>
        <time>2017-11-06T16:42:03Z</time>
      </trkpt>
      <trkpt lat="44.53003" lon="1.13419">
        <ele>224</ele>
        <time>2017-11-06T16:44:03Z</time>
      </trkpt>
      <trkpt lat="44.5302" lon="1.13427">
        <ele>225</ele>
        <time>2017-11-06T16:46:03Z</time>
      </trkpt>
      <trkpt lat="44.53038" lon="1.13435">
        <ele>225</ele>
        <time>2017-11-06T16:48:03Z</time>
      </trkpt>
      <trkpt lat="44.53058" lon="1.13424">
        <ele>229</ele>
        <time>2017-11-06T16:50:03Z</time>
      </trkpt>
      <trkpt lat="44.53036" lon="1.13425">
        <ele>226</ele>
        <time>2017-11-06T16:52:03Z</time>
      </trkpt>
      <trkpt lat="44.5304" lon="1.13401">
        <ele>228</ele>
        <time>2017-11-06T16:54:03Z</time>
      </trkpt>
      <trkpt lat="44.53036" lon="1.13376">
        <ele>228</ele>
        <time>2017-11-06T16:56:03Z</time>
      </trkpt>
      <trkpt lat="44.53036" lon="1.13349">
        <ele>228</ele>
        <time>2017-11-06T16:58:03Z</time>
      </trkpt>
      <trkpt lat="44.53032" lon="1.13324">
        <ele>228</ele>
        <time>2017-11-06T17:00:03Z</time>
      </trkpt>
      <trkpt lat="44.53048" lon="1.13313">
        <ele>229</ele>
        <time>2017-11-06T17:02:03Z</time>
      </trkpt>
      <trkpt lat="44.53066" lon="1.13318">
        <ele>231</ele>
        <time>2017-11-06T17:04:03Z</time>
      </trkpt>
      <trkpt lat="44.53084" lon="1.13315">
        <ele>232</ele>
        <time>2017-11-06T17:06:03Z</time>
      </trkpt>
      <trkpt lat="44.53103" lon="1.1331">
        <ele>234</ele>
        <time>2017-11-06T17:08:03Z</time>
      </trkpt>
      <trkpt lat="44.53122" lon="1.13319">
        <ele>235</ele>
        <time>2017-11-06T17:10:03Z</time>
      </trkpt>
      <trkpt lat="44.5314" lon="1.13323">
        <ele>236</ele>
        <time>2017-11-06T17:12:03Z</time>
      </trkpt>
      <trkpt lat="44.53158" lon="1.13329">
        <ele>238</ele>
        <time>2017-11-06T17:14:03Z</time>
      </trkpt>
      <trkpt lat="44.53177" lon="1.13331">
        <ele>238</ele>
        <time>2017-11-06T17:16:03Z</time>
      </trkpt>
      <trkpt lat="44.53195" lon="1.13327">
        <ele>238</ele>
        <time>2017-11-06T17:18:03Z</time>
      </trkpt>
      <trkpt lat="44.53205" lon="1.13306">
        <ele>239</ele>
        <time>2017-11-06T17:20:03Z</time>
      </trkpt>
      <trkpt lat="44.53219" lon="1.13257">
        <ele>241</ele>
        <time>2017-11-06T17:22:03Z</time>
      </trkpt>
      <trkpt lat="44.53225" lon="1.13232">
        <ele>241</ele>
        <time>2017-11-06T17:24:03Z</time>
      </trkpt>
      <trkpt lat="44.5323" lon="1.13207">
        <ele>241</ele>
        <time>2017-11-06T17:26:03Z</time>
      </trkpt>
      <trkpt lat="44.53235" lon="1.13183">
        <ele>242</ele>
        <time>2017-11-06T17:28:03Z</time>
      </trkpt>
      <trkpt lat="44.53243" lon="1.13157">
        <ele>242</ele>
        <time>2017-11-06T17:30:03Z</time>
      </trkpt>
      <trkpt lat="44.53254" lon="1.13135">
        <ele>242</ele>
        <time>2017-11-06T17:32:03Z</time>
      </trkpt>
      <trkpt lat="44.53255" lon="1.13109">
        <ele>242</ele>
        <time>2017-11-06T17:34:03Z</time>
      </trkpt>
      <trkpt lat="44.53261" lon="1.13084">
        <ele>241</ele>
        <time>2017-11-06T17:36:03Z</time>
      </trkpt>
      <trkpt lat="44.53259" lon="1.13057">
        <ele>241</ele>
        <time>2017-11-06T17:38:03Z</time>
      </trkpt>
      <trkpt lat="44.53262" lon="1.1303">
        <ele>240</ele>
        <time>2017-11-06T17:40:03Z</time>
      </trkpt>
      <trkpt lat="44.53266" lon="1.13004">
        <ele>240</ele>
        <time>2017-11-06T17:42:03Z</time>
      </trkpt>
      <trkpt lat="44.53267" lon="1.12978">
        <ele>239</ele>
        <time>2017-11-06T17:44:03Z</time>
      </trkpt>
      <trkpt lat="44.53274" lon="1.12952">
        <ele>239</ele>
        <time>2017-11-06T17:46:03Z</time>
      </trkpt>
      <trkpt lat="44.53282" lon="1.12929">
        <ele>239</ele>
        <time>2017-11-06T17:48:03Z</time>
      </trkpt>
      <trkpt lat="44.53296" lon="1.12913">
        <ele>240</ele>
        <time>2017-11-06T17:50:03Z</time>
      </trkpt>
      <trkpt lat="44.53313" lon="1.12866">
        <ele>244</ele>
        <time>2017-11-06T17:52:03Z</time>
      </trkpt>
      <trkpt lat="44.53328" lon="1.1285">
        <ele>247</ele>
        <time>2017-11-06T17:54:03Z</time>
      </trkpt>
      <trkpt lat="44.53339" lon="1.12829">
        <ele>249</ele>
        <time>2017-11-06T17:56:03Z</time>
      </trkpt>
      <trkpt lat="44.53344" lon="1.12804">
        <ele>249</ele>
        <time>2017-11-06T17:58:03Z</time>
      </trkpt>
      <trkpt lat="44.53359" lon="1.12788">
        <ele>250</ele>
        <time>2017-11-06T18:00:03Z</time>
      </trkpt>
      <trkpt lat="44.53369" lon="1.12765">
        <ele>251</ele>
        <time>2017-11-06T18:02:03Z</time>
      </trkpt>
      <trkpt lat="44.53381" lon="1.12746">
        <ele>251</ele>
        <time>2017-11-06T18:04:03Z</time>
      </trkpt>
      <trkpt lat="44.53399" lon="1.12731">
        <ele>253</ele>
        <time>2017-11-06T18:06:03Z</time>
      </trkpt>
      <trkpt lat="44.53414" lon="1.12715">
        <ele>253</ele>
        <time>2017-11-06T18:08:03Z</time>
      </trkpt>
      <trkpt lat="44.53429" lon="1.12698">
        <ele>254</ele>
        <time>2017-11-06T18:10:03Z</time>
      </trkpt>
      <trkpt lat="44.5344" lon="1.12677">
        <ele>254</ele>
        <time>2017-11-06T18:12:03Z</time>
      </trkpt>
      <trkpt lat="44.53452" lon="1.12657">
        <ele>253</ele>
        <time>2017-11-06T18:14:03Z</time>
      </trkpt>
      <trkpt lat="44.53458" lon="1.12632">
        <ele>252</ele>
        <time>2017-11-06T18:16:03Z</time>
      </trkpt>
      <trkpt lat="44.53457" lon="1.12605">
        <ele>250</ele>
        <time>2017-11-06T18:18:03Z</time>
      </trkpt>
      <trkpt lat="44.53458" lon="1.12577">
        <ele>249</ele>
        <time>2017-11-06T18:20:03Z</time>
      </trkpt>
      <trkpt lat="44.53464" lon="1.12553">
        <ele>248</ele>
        <time>2017-11-06T18:22:03Z</time>
      </trkpt>
      <trkpt lat="44.53461" lon="1.12526">
        <ele>247</ele>
        <time>2017-11-06T18:24:03Z</time>
      </trkpt>
      <trkpt lat="44.53462" lon="1.125">
        <ele>246</ele>
        <time>2017-11-06T18:26:03Z</time>
      </trkpt>
      <trkpt lat="44.53461" lon="1.12474">
        <ele>247</ele>
        <time>2017-11-06T18:28:03Z</time>
      </trkpt>
      <trkpt lat="44.53465" lon="1.1245">
        <ele>247</ele>
        <time>2017-11-06T18:30:03Z</time>
      </trkpt>
      <trkpt lat="44.53482" lon="1.12439">
        <ele>246</ele>
        <time>2017-11-06T18:32:03Z</time>
      </trkpt>
      <trkpt lat="44.535" lon="1.12437">
        <ele>245</ele>
        <time>2017-11-06T18:34:03Z</time>
      </trkpt>
      <trkpt lat="44.53519" lon="1.12438">
        <ele>245</ele>
        <time>2017-11-06T18:36:03Z</time>
      </trkpt>
      <trkpt lat="44.53538" lon="1.12434">
        <ele>244</ele>
        <time>2017-11-06T18:38:03Z</time>
      </trkpt>
      <trkpt lat="44.53555" lon="1.12441">
        <ele>244</ele>
        <time>2017-11-06T18:40:03Z</time>
      </trkpt>
      <trkpt lat="44.53574" lon="1.1244">
        <ele>243</ele>
        <time>2017-11-06T18:42:03Z</time>
      </trkpt>
      <trkpt lat="44.53592" lon="1.12437">
        <ele>242</ele>
        <time>2017-11-06T18:44:03Z</time>
      </trkpt>
      <trkpt lat="44.53611" lon="1.12431">
        <ele>242</ele>
        <time>2017-11-06T18:46:03Z</time>
      </trkpt>
      <trkpt lat="44.5363" lon="1.12431">
        <ele>241</ele>
        <time>2017-11-06T18:48:03Z</time>
      </trkpt>
      <trkpt lat="44.53645" lon="1.12415">
        <ele>241</ele>
        <time>2017-11-06T18:50:03Z</time>
      </trkpt>
      <trkpt lat="44.53655" lon="1.12394">
        <ele>241</ele>
        <time>2017-11-06T18:52:03Z</time>
      </trkpt>
      <trkpt lat="44.53659" lon="1.12369">
        <ele>241</ele>
        <time>2017-11-06T18:54:03Z</time>
      </trkpt>
      <trkpt lat="44.53664" lon="1.12343">
        <ele>242</ele>
        <time>2017-11-06T18:56:03Z</time>
      </trkpt>
      <trkpt lat="44.53678" lon="1.12323">
        <ele>241</ele>
        <time>2017-11-06T18:58:03Z</time>
      </trkpt>
      <trkpt lat="44.53687" lon="1.12301">
        <ele>239</ele>
        <time>2017-11-06T19:00:03Z</time>
      </trkpt>
      <trkpt lat="44.53694" lon="1.12278">
        <ele>237</ele>
        <time>2017-11-06T19:02:03Z</time>
      </trkpt>
      <trkpt lat="44.53696" lon="1.12249">
        <ele>236</ele>
        <time>2017-11-06T19:04:03Z</time>
      </trkpt>
      <trkpt lat="44.53702" lon="1.12224">
        <ele>235</ele>
        <time>2017-11-06T19:06:03Z</time>
      </trkpt>
      <trkpt lat="44.53705" lon="1.12198">
        <ele>235</ele>
        <time>2017-11-06T19:08:03Z</time>
      </trkpt>
      <trkpt lat="44.53711" lon="1.12173">
        <ele>234</ele>
        <time>2017-11-06T19:10:03Z</time>
      </trkpt>
      <trkpt lat="44.53709" lon="1.12146">
        <ele>235</ele>
        <time>2017-11-06T19:12:03Z</time>
      </trkpt>
      <trkpt lat="44.53709" lon="1.1212">
        <ele>237</ele>
        <time>2017-11-06T19:14:03Z</time>
      </trkpt>
      <trkpt lat="44.53709" lon="1.12094">
        <ele>238</ele>
        <time>2017-11-06T19:16:03Z</time>
      </trkpt>
      <trkpt lat="44.53707" lon="1.12068">
        <ele>239</ele>
        <time>2017-11-06T19:18:03Z</time>
      </trkpt>
      <trkpt lat="44.53713" lon="1.12044">
        <ele>241</ele>
        <time>2017-11-06T19:20:03Z</time>
      </trkpt>
      <trkpt lat="44.53711" lon="1.12018">
        <ele>242</ele>
        <time>2017-11-06T19:22:03Z</time>
      </trkpt>
      <trkpt lat="44.53711" lon="1.11992">
        <ele>244</ele>
        <time>2017-11-06T19:24:03Z</time>
      </trkpt>
      <trkpt lat="44.53713" lon="1.11967">
        <ele>245</ele>
        <time>2017-11-06T19:26:03Z</time>
      </trkpt>
      <trkpt lat="44.53718" lon="1.11941">
        <ele>247</ele>
        <time>2017-11-06T19:28:03Z</time>
      </trkpt>
      <trkpt lat="44.53728" lon="1.11919">
        <ele>248</ele>
        <time>2017-11-06T19:30:03Z</time>
      </trkpt>
      <trkpt lat="44.53727" lon="1.11894">
        <ele>248</ele>
        <time>2017-11-06T19:32:03Z</time>
      </trkpt>
      <trkpt lat="44.53729" lon="1.11868">
        <ele>248</ele>
        <time>2017-11-06T19:34:03Z</time>
      </trkpt>
      <trkpt lat="44.53738" lon="1.11846">
        <ele>248</ele>
        <time>2017-11-06T19:36:03Z</time>
      </trkpt>
      <trkpt lat="44.53733" lon="1.11822">
        <ele>248</ele>
        <time>2017-11-06T19:38:03Z</time>
      </trkpt>
      <trkpt lat="44.53739" lon="1.11796">
        <ele>247</ele>
        <time>2017-11-06T19:40:03Z</time>
      </trkpt>
      <trkpt lat="44.5375" lon="1.11775">
        <ele>246</ele>
        <time>2017-11-06T19:42:03Z</time>
      </trkpt>
      <trkpt lat="44.53753" lon="1.11749">
        <ele>245</ele>
        <time>2017-11-06T19:44:03Z</time>
      </trkpt>
      <trkpt lat="44.53759" lon="1.11725">
        <ele>245</ele>
        <time>2017-11-06T19:46:03Z</time>
      </trkpt>
      <trkpt lat="44.53763" lon="1.117">
        <ele>245</ele>
        <time>2017-11-06T19:48:03Z</time>
      </trkpt>
      <trkpt lat="44.53771" lon="1.11675">
        <ele>245</ele>
        <time>2017-11-06T19:50:03Z</time>
      </trkpt>
      <trkpt lat="44.53775" lon="1.11648">
        <ele>245</ele>
        <time>2017-11-06T19:52:03Z</time>
      </trkpt>
      <trkpt lat="44.5378" lon="1.11624">
        <ele>245</ele>
        <time>2017-11-06T19:54:03Z</time>
      </trkpt>
      <trkpt lat="44.53777" lon="1.11598">
        <ele>245</ele>
        <time>2017-11-06T19:56:03Z</time>
      </trkpt>
      <trkpt lat="44.53786" lon="1.11575">
        <ele>244</ele>
        <time>2017-11-06T19:58:03Z</time>
      </trkpt>
      <trkpt lat="44.53792" lon="1.1155">
        <ele>244</ele>
        <time>2017-11-06T20:00:03Z</time>
      </trkpt>
      <trkpt lat="44.53794" lon="1.11524">
        <ele>244</ele>
        <time>2017-11-06T20:02:03Z</time>
      </trkpt>
      <trkpt lat="44.53803" lon="1.11501">
        <ele>244</ele>
        <time>2017-11-06T20:04:03Z</time>
      </trkpt>
      <trkpt lat="44.53803" lon="1.11475">
        <ele>247</ele>
        <time>2017-11-06T20:06:03Z</time>
      </trkpt>
      <trkpt lat="44.53801" lon="1.11448">
        <ele>249</ele>
        <time>2017-11-06T20:08:03Z</time>
      </trkpt>
      <trkpt lat="44.53813" lon="1.11428">
        <ele>252</ele>
        <time>2017-11-06T20:10:03Z</time>
      </trkpt>
      <trkpt lat="44.53812" lon="1.11403">
        <ele>255</ele>
        <time>2017-11-06T20:12:03Z</time>
      </trkpt>
      <trkpt lat="44.5382" lon="1.11379">
        <ele>258</ele>
        <time>2017-11-06T20:14:03Z</time>
      </trkpt>
      <trkpt lat="44.53815" lon="1.11354">
        <ele>262</ele>
        <time>2017-11-06T20:16:03Z</time>
      </trkpt>
      <trkpt lat="44.53799" lon="1.11342">
        <ele>263</ele>
        <time>2017-11-06T20:18:03Z</time>
      </trkpt>
      <trkpt lat="44.53781" lon="1.11334">
        <ele>263</ele>
        <time>2017-11-06T20:20:03Z</time>
      </trkpt>
      <trkpt lat="44.53764" lon="1.11321">
        <ele>262</ele>
        <time>2017-11-06T20:22:03Z</time>
      </trkpt>
      <trkpt lat="44.53748" lon="1.11306">
        <ele>261</ele>
        <time>2017-11-06T20:24:03Z</time>
      </trkpt>
      <trkpt lat="44.53734" lon="1.1129">
        <ele>259</ele>
        <time>2017-11-06T20:26:03Z</time>
      </trkpt>
      <trkpt lat="44.53721" lon="1.11271">
        <ele>256</ele>
        <time>2017-11-06T20:28:03Z</time>
      </trkpt>
      <trkpt lat="44.53705" lon="1.11258">
        <ele>253</ele>
        <time>2017-11-06T20:30:03Z</time>
      </trkpt>
      <trkpt lat="44.5369" lon="1.1124">
        <ele>250</ele>
        <time>2017-11-06T20:32:03Z</time>
      </trkpt>
      <trkpt lat="44.53674" lon="1.11226">
        <ele>247</ele>
        <time>2017-11-06T20:34:03Z</time>
      </trkpt>
      <trkpt lat="44.53661" lon="1.11208">
        <ele>245</ele>
        <time>2017-11-06T20:36:03Z</time>
      </trkpt>
      <trkpt lat="44.53645" lon="1.11195">
        <ele>243</ele>
        <time>2017-11-06T20:38:03Z</time>
      </trkpt>
      <trkpt lat="44.53627" lon="1.11187">
        <ele>241</ele>
        <time>2017-11-06T20:40:03Z</time>
      </trkpt>
      <trkpt lat="44.53614" lon="1.11169">
        <ele>240</ele>
        <time>2017-11-06T20:42:03Z</time>
      </trkpt>
      <trkpt lat="44.53603" lon="1.11149">
        <ele>237</ele>
        <time>2017-11-06T20:44:03Z</time>
      </trkpt>
      <trkpt lat="44.53593" lon="1.11128">
        <ele>235</ele>
        <time>2017-11-06T20:46:03Z</time>
      </trkpt>
      <trkpt lat="44.53579" lon="1.11111">
        <ele>232</ele>
        <time>2017-11-06T20:48:03Z</time>
      </trkpt>
      <trkpt lat="44.5356" lon="1.11109">
        <ele>230</ele>
        <time>2017-11-06T20:50:03Z</time>
      </trkpt>
      <trkpt lat="44.53542" lon="1.11103">
        <ele>228</ele>
        <time>2017-11-06T20:52:03Z</time>
      </trkpt>
      <trkpt lat="44.53524" lon="1.11102">
        <ele>227</ele>
        <time>2017-11-06T20:54:03Z</time>
      </trkpt>
      <trkpt lat="44.53505" lon="1.11102">
        <ele>226</ele>
        <time>2017-11-06T20:56:03Z</time>
      </trkpt>
      <trkpt lat="44.53487" lon="1.11094">
        <ele>223</ele>
        <time>2017-11-06T20:58:03Z</time>
      </trkpt>
      <trkpt lat="44.53469" lon="1.1109">
        <ele>220</ele>
        <time>2017-11-06T21:00:03Z</time>
      </trkpt>
      <trkpt lat="44.53451" lon="1.11093">
        <ele>217</ele>
        <time>2017-11-06T21:02:03Z</time>
      </trkpt>
      <trkpt lat="44.53432" lon="1.111">
        <ele>214</ele>
        <time>2017-11-06T21:04:03Z</time>
      </trkpt>
      <trkpt lat="44.53417" lon="1.11116">
        <ele>213</ele>
        <time>2017-11-06T21:06:03Z</time>
      </trkpt>
      <trkpt lat="44.53404" lon="1.11136">
        <ele>213</ele>
        <time>2017-11-06T21:08:03Z</time>
      </trkpt>
      <trkpt lat="44.53394" lon="1.11156">
        <ele>213</ele>
        <time>2017-11-06T21:10:03Z</time>
      </trkpt>
      <trkpt lat="44.53391" lon="1.11183">
        <ele>213</ele>
        <time>2017-11-06T21:12:03Z</time>
      </trkpt>
      <trkpt lat="44.53389" lon="1.1121">
        <ele>213</ele>
        <time>2017-11-06T21:14:03Z</time>
      </trkpt>
      <trkpt lat="44.53371" lon="1.11203">
        <ele>212</ele>
        <time>2017-11-06T21:16:03Z</time>
      </trkpt>
      <trkpt lat="44.53364" lon="1.11178">
        <ele>211</ele>
        <time>2017-11-06T21:18:03Z</time>
      </trkpt>
      <trkpt lat="44.53366" lon="1.11152">
        <ele>210</ele>
        <time>2017-11-06T21:20:03Z</time>
      </trkpt>
      <trkpt lat="44.53364" lon="1.11126">
        <ele>207</ele>
        <time>2017-11-06T21:22:03Z</time>
      </trkpt>
      <trkpt lat="44.53355" lon="1.11102">
        <ele>204</ele>
        <time>2017-11-06T21:24:03Z</time>
      </trkpt>
      <trkpt lat="44.53342" lon="1.11083">
        <ele>200</ele>
        <time>2017-11-06T21:26:03Z</time>
      </trkpt>
      <trkpt lat="44.53334" lon="1.11059">
        <ele>199</ele>
        <time>2017-11-06T21:28:03Z</time>
      </trkpt>
      <trkpt lat="44.53322" lon="1.11039">
        <ele>200</ele>
        <time>2017-11-06T21:30:03Z</time>
      </trkpt>
      <trkpt lat="44.53295" lon="1.11001">
        <ele>198</ele>
        <time>2017-11-06T21:32:03Z</time>
      </trkpt>
      <trkpt lat="44.53283" lon="1.10982">
        <ele>198</ele>
        <time>2017-11-06T21:34:03Z</time>
      </trkpt>
      <trkpt lat="44.53269" lon="1.10966">
        <ele>198</ele>
        <time>2017-11-06T21:36:03Z</time>
      </trkpt>
      <trkpt lat="44.5325" lon="1.10964">
        <ele>197</ele>
        <time>2017-11-06T21:38:03Z</time>
      </trkpt>
      <trkpt lat="44.53232" lon="1.10967">
        <ele>196</ele>
        <time>2017-11-06T21:40:03Z</time>
      </trkpt>
      <trkpt lat="44.53214" lon="1.10974">
        <ele>195</ele>
        <time>2017-11-06T21:42:03Z</time>
      </trkpt>
      <trkpt lat="44.53195" lon="1.10974">
        <ele>194</ele>
        <time>2017-11-06T21:44:03Z</time>
      </trkpt>
      <trkpt lat="44.53177" lon="1.10964">
        <ele>192</ele>
        <time>2017-11-06T21:46:03Z</time>
      </trkpt>
      <trkpt lat="44.53161" lon="1.10952">
        <ele>191</ele>
        <time>2017-11-06T21:48:03Z</time>
      </trkpt>
      <trkpt lat="44.53149" lon="1.10933">
        <ele>189</ele>
        <time>2017-11-06T21:50:03Z</time>
      </trkpt>
      <trkpt lat="44.53136" lon="1.10915">
        <ele>187</ele>
        <time>2017-11-06T21:52:03Z</time>
      </trkpt>
      <trkpt lat="44.53126" lon="1.10894">
        <ele>184</ele>
        <time>2017-11-06T21:54:03Z</time>
      </trkpt>
      <trkpt lat="44.53114" lon="1.10874">
        <ele>182</ele>
        <time>2017-11-06T21:56:03Z</time>
      </trkpt>
      <trkpt lat="44.53098" lon="1.10859">
        <ele>178</ele>
        <time>2017-11-06T21:58:03Z</time>
      </trkpt>
      <trkpt lat="44.5308" lon="1.10854">
        <ele>175</ele>
        <time>2017-11-06T22:00:03Z</time>
      </trkpt>
      <trkpt lat="44.53063" lon="1.10864">
        <ele>177</ele>
        <time>2017-11-06T22:02:03Z</time>
      </trkpt>
      <trkpt lat="44.53051" lon="1.10843">
        <ele>173</ele>
        <time>2017-11-06T22:04:03Z</time>
      </trkpt>
      <trkpt lat="44.53033" lon="1.10839">
        <ele>172</ele>
        <time>2017-11-06T22:06:03Z</time>
      </trkpt>
      <trkpt lat="44.53015" lon="1.10843">
        <ele>172</ele>
        <time>2017-11-06T22:08:03Z</time>
      </trkpt>
      <trkpt lat="44.52996" lon="1.10848">
        <ele>173</ele>
        <time>2017-11-06T22:10:03Z</time>
      </trkpt>
      <trkpt lat="44.52977" lon="1.10843">
        <ele>172</ele>
        <time>2017-11-06T22:12:03Z</time>
      </trkpt>
      <trkpt lat="44.52963" lon="1.10826">
        <ele>170</ele>
        <time>2017-11-06T22:14:03Z</time>
      </trkpt>
      <trkpt lat="44.52946" lon="1.10811">
        <ele>169</ele>
        <time>2017-11-06T22:16:03Z</time>
      </trkpt>
      <trkpt lat="44.52931" lon="1.10797">
        <ele>167</ele>
        <time>2017-11-06T22:18:03Z</time>
      </trkpt>
      <trkpt lat="44.52913" lon="1.1079">
        <ele>166</ele>
        <time>2017-11-06T22:20:03Z</time>
      </trkpt>
      <trkpt lat="44.52895" lon="1.10781">
        <ele>166</ele>
        <time>2017-11-06T22:22:03Z</time>
      </trkpt>
      <trkpt lat="44.52877" lon="1.10776">
        <ele>165</ele>
        <time>2017-11-06T22:24:03Z</time>
      </trkpt>
      <trkpt lat="44.52857" lon="1.10776">
        <ele>166</ele>
        <time>2017-11-06T22:26:03Z</time>
      </trkpt>
      <trkpt lat="44.52839" lon="1.10776">
        <ele>167</ele>
        <time>2017-11-06T22:28:03Z</time>
      </trkpt>
      <trkpt lat="44.52819" lon="1.10769">
        <ele>165</ele>
        <time>2017-11-06T22:30:03Z</time>
      </trkpt>
      <trkpt lat="44.52802" lon="1.10758">
        <ele>162</ele>
        <time>2017-11-06T22:32:03Z</time>
      </trkpt>
      <trkpt lat="44.52783" lon="1.10748">
        <ele>159</ele>
        <time>2017-11-06T22:34:03Z</time>
      </trkpt>
      <trkpt lat="44.52766" lon="1.10743">
        <ele>158</ele>
        <time>2017-11-06T22:36:03Z</time>
      </trkpt>
      <trkpt lat="44.52748" lon="1.10737">
        <ele>158</ele>
        <time>2017-11-06T22:38:03Z</time>
      </trkpt>
      <trkpt lat="44.52729" lon="1.10731">
        <ele>159</ele>
        <time>2017-11-06T22:40:03Z</time>
      </trkpt>
      <trkpt lat="44.52713" lon="1.1072">
        <ele>158</ele>
        <time>2017-11-06T22:42:03Z</time>
      </trkpt>
      <trkpt lat="44.52724" lon="1.107">
        <ele>157</ele>
        <time>2017-11-06T22:44:03Z</time>
      </trkpt>
      <trkpt lat="44.52734" lon="1.10677">
        <ele>156</ele>
        <time>2017-11-06T22:46:03Z</time>
      </trkpt>
      <trkpt lat="44.52734" lon="1.1065">
        <ele>160</ele>
        <time>2017-11-06T22:48:03Z</time>
      </trkpt>
      <trkpt lat="44.52719" lon="1.10635">
        <ele>160</ele>
        <time>2017-11-06T22:50:03Z</time>
      </trkpt>
      <trkpt lat="44.52707" lon="1.10614">
        <ele>161</ele>
        <time>2017-11-06T22:52:03Z</time>
      </trkpt>
      <trkpt lat="44.52693" lon="1.10597">
        <ele>160</ele>
        <time>2017-11-06T22:54:03Z</time>
      </trkpt>
      <trkpt lat="44.52681" lon="1.10578">
        <ele>158</ele>
        <time>2017-11-06T22:56:03Z</time>
      </trkpt>
      <trkpt lat="44.52668" lon="1.10557">
        <ele>157</ele>
        <time>2017-11-06T22:58:03Z</time>
      </trkpt>
      <trkpt lat="44.52657" lon="1.10536">
        <ele>158</ele>
        <time>2017-11-06T23:00:03Z</time>
      </trkpt>
      <trkpt lat="44.52648" lon="1.10514">
        <ele>159</ele>
        <time>2017-11-06T23:02:03Z</time>
      </trkpt>
      <trkpt lat="44.52636" lon="1.10494">
        <ele>160</ele>
        <time>2017-11-06T23:04:03Z</time>
      </trkpt>
      <trkpt lat="44.52622" lon="1.10476">
        <ele>160</ele>
        <time>2017-11-06T23:06:03Z</time>
      </trkpt>
      <trkpt lat="44.52581" lon="1.10425">
        <ele>160</ele>
        <time>2017-11-06T23:08:03Z</time>
      </trkpt>
      <trkpt lat="44.52566" lon="1.1041">
        <ele>159</ele>
        <time>2017-11-06T23:10:03Z</time>
      </trkpt>
      <trkpt lat="44.52549" lon="1.10396">
        <ele>158</ele>
        <time>2017-11-06T23:12:03Z</time>
      </trkpt>
      <trkpt lat="44.52531" lon="1.10389">
        <ele>155</ele>
        <time>2017-11-06T23:14:03Z</time>
      </trkpt>
      <trkpt lat="44.52515" lon="1.10376">
        <ele>153</ele>
        <time>2017-11-06T23:16:03Z</time>
      </trkpt>
      <trkpt lat="44.52499" lon="1.10362">
        <ele>152</ele>
        <time>2017-11-06T23:18:03Z</time>
      </trkpt>
      <trkpt lat="44.52482" lon="1.10351">
        <ele>150</ele>
        <time>2017-11-06T23:20:03Z</time>
      </trkpt>
      <trkpt lat="44.52469" lon="1.10334">
        <ele>149</ele>
        <time>2017-11-06T23:22:03Z</time>
      </trkpt>
      <trkpt lat="44.52451" lon="1.10325">
        <ele>144</ele>
        <time>2017-11-06T23:24:03Z</time>
      </trkpt>
      <trkpt lat="44.52437" lon="1.10309">
        <ele>141</ele>
        <time>2017-11-06T23:26:03Z</time>
      </trkpt>
      <trkpt lat="44.52423" lon="1.10291">
        <ele>139</ele>
        <time>2017-11-06T23:28:03Z</time>
      </trkpt>
      <trkpt lat="44.5241" lon="1.10274">
        <ele>137</ele>
        <time>2017-11-06T23:30:03Z</time>
      </trkpt>
      <trkpt lat="44.52404" lon="1.10248">
        <ele>138</ele>
        <time>2017-11-06T23:32:03Z</time>
      </trkpt>
      <trkpt lat="44.52403" lon="1.10221">
        <ele>142</ele>
        <time>2017-11-06T23:34:03Z</time>
      </trkpt>
      <trkpt lat="44.52397" lon="1.10197">
        <ele>146</ele>
        <time>2017-11-06T23:36:03Z</time>
      </trkpt>
      <trkpt lat="44.52379" lon="1.10201">
        <ele>145</ele>
        <time>2017-11-06T23:38:03Z</time>
      </trkpt>
      <trkpt lat="44.52362" lon="1.10212">
        <ele>142</ele>
        <time>2017-11-06T23:40:03Z</time>
      </trkpt>
      <trkpt lat="44.52346" lon="1.10225">
        <ele>138</ele>
        <time>2017-11-06T23:42:03Z</time>
      </trkpt>
      <trkpt lat="44.52329" lon="1.10238">
        <ele>134</ele>
        <time>2017-11-06T23:44:03Z</time>
      </trkpt>
      <trkpt lat="44.5231" lon="1.10246">
        <ele>132</ele>
        <time>2017-11-06T23:46:03Z</time>
      </trkpt>
      <trkpt lat="44.52291" lon="1.10247">
        <ele>131</ele>
        <time>2017-11-06T23:48:03Z</time>
      </trkpt>
      <trkpt lat="44.52273" lon="1.10247">
        <ele>131</ele>
        <time>2017-11-06T23:50:03Z</time>
      </trkpt>
      <trkpt lat="44.52255" lon="1.10245">
        <ele>132</ele>
        <time>2017-11-06T23:52:03Z</time>
      </trkpt>
      <trkpt lat="44.52235" lon="1.10247">
        <ele>131</ele>
        <time>2017-11-06T23:54:03Z</time>
      </trkpt>
      <trkpt lat="44.52216" lon="1.10246">
        <ele>131</ele>
        <time>2017-11-06T23:56:03Z</time>
      </trkpt>
      <trkpt lat="44.52197" lon="1.10248">
        <ele>129</ele>
        <time>2017-11-06T23:58:03Z</time>
      </trkpt>
      <trkpt lat="44.52179" lon="1.10254">
        <ele>128</ele>
        <time>2017-11-07T00:00:03Z</time>
      </trkpt>
      <trkpt lat="44.5216" lon="1.1026">
        <ele>127</ele>
        <time>2017-11-07T00:02:03Z</time>
      </trkpt>
      <trkpt lat="44.52139" lon="1.10256">
        <ele>128</ele>
        <time>2017-11-07T00:04:03Z</time>
      </trkpt>
      <trkpt lat="44.5212" lon="1.10252">
        <ele>129</ele>
        <time>2017-11-07T00:06:03Z</time>
      </trkpt>
      <trkpt lat="44.52102" lon="1.10253">
        <ele>129</ele>
        <time>2017-11-07T00:08:03Z</time>
      </trkpt>
      <trkpt lat="44.52084" lon="1.10262">
        <ele>128</ele>
        <time>2017-11-07T00:10:03Z</time>
      </trkpt>
      <trkpt lat="44.52066" lon="1.10273">
        <ele>128</ele>
        <time>2017-11-07T00:12:03Z</time>
      </trkpt>
      <trkpt lat="44.5205" lon="1.10287">
        <ele>127</ele>
        <time>2017-11-07T00:14:03Z</time>
      </trkpt>
      <trkpt lat="44.5203" lon="1.10293">
        <ele>127</ele>
        <time>2017-11-07T00:16:03Z</time>
      </trkpt>
      <trkpt lat="44.52011" lon="1.10303">
        <ele>125</ele>
        <time>2017-11-07T00:18:03Z</time>
      </trkpt>
      <trkpt lat="44.51995" lon="1.10317">
        <ele>123</ele>
        <time>2017-11-07T00:20:03Z</time>
      </trkpt>
      <trkpt lat="44.51979" lon="1.10332">
        <ele>121</ele>
        <time>2017-11-07T00:22:03Z</time>
      </trkpt>
      <trkpt lat="44.51964" lon="1.10345">
        <ele>122</ele>
        <time>2017-11-07T00:24:03Z</time>
      </trkpt>
      <trkpt lat="44.51929" lon="1.10372">
        <ele>122</ele>
        <time>2017-11-07T00:26:03Z</time>
      </trkpt>
      <trkpt lat="44.51909" lon="1.10373">
        <ele>122</ele>
        <time>2017-11-07T00:28:03Z</time>
      </trkpt>
      <trkpt lat="44.51891" lon="1.10376">
        <ele>121</ele>
        <time>2017-11-07T00:30:03Z</time>
      </trkpt>
      <trkpt lat="44.51875" lon="1.1039">
        <ele>117</ele>
        <time>2017-11-07T00:32:03Z</time>
      </trkpt>
      <trkpt lat="44.5186" lon="1.10409">
        <ele>112</ele>
        <time>2017-11-07T00:34:03Z</time>
      </trkpt>
      <trkpt lat="44.51845" lon="1.10426">
        <ele>110</ele>
        <time>2017-11-07T00:36:03Z</time>
      </trkpt>
      <trkpt lat="44.51838" lon="1.1045">
        <ele>109</ele>
        <time>2017-11-07T00:38:03Z</time>
      </trkpt>
      <trkpt lat="44.51832" lon="1.10475">
        <ele>108</ele>
        <time>2017-11-07T00:40:03Z</time>
      </trkpt>
      <trkpt lat="44.51823" lon="1.10499">
        <ele>107</ele>
        <time>2017-11-07T00:42:03Z</time>
      </trkpt>
      <trkpt lat="44.51836" lon="1.10518">
        <ele>109</ele>
        <time>2017-11-07T00:44:03Z</time>
      </trkpt>
      <trkpt lat="44.51819" lon="1.1051">
        <ele>107</ele>
        <time>2017-11-07T00:46:03Z</time>
      </trkpt>
      <trkpt lat="44.51812" lon="1.10534">
        <ele>108</ele>
        <time>2017-11-07T00:48:03Z</time>
      </trkpt>
      <trkpt lat="44.51818" lon="1.1056">
        <ele>110</ele>
        <time>2017-11-07T00:50:03Z</time>
      </trkpt>
      <trkpt lat="44.51831" lon="1.10579">
        <ele>112</ele>
        <time>2017-11-07T00:52:03Z</time>
      </trkpt>
      <trkpt lat="44.51845" lon="1.10596">
        <ele>117</ele>
        <time>2017-11-07T00:54:03Z</time>
      </trkpt>
      <trkpt lat="44.51869" lon="1.10635">
        <ele>127</ele>
        <time>2017-11-07T00:56:03Z</time>
      </trkpt>
      <trkpt lat="44.51877" lon="1.10657">
        <ele>132</ele>
        <time>2017-11-07T00:58:03Z</time>
      </trkpt>
      <trkpt lat="44.51889" lon="1.10676">
        <ele>137</ele>
        <time>2017-11-07T01:00:03Z</time>
      </trkpt>
      <trkpt lat="44.51892" lon="1.10702">
        <ele>142</ele>
        <time>2017-11-07T01:02:03Z</time>
      </trkpt>
      <trkpt lat="44.51885" lon="1.10753">
        <ele>148</ele>
        <time>2017-11-07T01:04:03Z</time>
      </trkpt>
      <trkpt lat="44.51884" lon="1.10779">
        <ele>150</ele>
        <time>2017-11-07T01:06:03Z</time>
      </trkpt>
      <trkpt lat="44.5189" lon="1.10804">
        <ele>154</ele>
        <time>2017-11-07T01:08:03Z</time>
      </trkpt>
      <trkpt lat="44.51889" lon="1.10856">
        <ele>156</ele>
        <time>2017-11-07T01:10:03Z</time>
      </trkpt>
      <trkpt lat="44.51887" lon="1.10882">
        <ele>156</ele>
        <time>2017-11-07T01:12:03Z</time>
      </trkpt>
      <trkpt lat="44.5189" lon="1.10907">
        <ele>157</ele>
        <time>2017-11-07T01:14:03Z</time>
      </trkpt>
      <trkpt lat="44.51893" lon="1.10933">
        <ele>158</ele>
        <time>2017-11-07T01:16:03Z</time>
      </trkpt>
      <trkpt lat="44.51902" lon="1.10957">
        <ele>160</ele>
        <time>2017-11-07T01:18:03Z</time>
      </trkpt>
      <trkpt lat="44.51906" lon="1.10983">
        <ele>161</ele>
        <time>2017-11-07T01:20:03Z</time>
      </trkpt>
      <trkpt lat="44.519" lon="1.11007">
        <ele>158</ele>
        <time>2017-11-07T01:22:03Z</time>
      </trkpt>
      <trkpt lat="44.51903" lon="1.11035">
        <ele>156</ele>
        <time>2017-11-07T01:24:03Z</time>
      </trkpt>
      <trkpt lat="44.5191" lon="1.1106">
        <ele>155</ele>
        <time>2017-11-07T01:26:03Z</time>
      </trkpt>
      <trkpt lat="44.51921" lon="1.1108">
        <ele>156</ele>
        <time>2017-11-07T01:28:03Z</time>
      </trkpt>
      <trkpt lat="44.5192" lon="1.11106">
        <ele>154</ele>
        <time>2017-11-07T01:30:03Z</time>
      </trkpt>
      <trkpt lat="44.51923" lon="1.11132">
        <ele>155</ele>
        <time>2017-11-07T01:32:03Z</time>
      </trkpt>
      <trkpt lat="44.51914" lon="1.11154">
        <ele>152</ele>
        <time>2017-11-07T01:34:03Z</time>
      </trkpt>
      <trkpt lat="44.519" lon="1.11172">
        <ele>149</ele>
        <time>2017-11-07T01:36:03Z</time>
      </trkpt>
      <trkpt lat="44.51901" lon="1.11198">
        <ele>150</ele>
        <time>2017-11-07T01:38:03Z</time>
      </trkpt>
      <trkpt lat="44.51909" lon="1.11221">
        <ele>153</ele>
        <time>2017-11-07T01:40:03Z</time>
      </trkpt>
      <trkpt lat="44.51927" lon="1.11226">
        <ele>157</ele>
        <time>2017-11-07T01:42:03Z</time>
      </trkpt>
      <trkpt lat="44.51944" lon="1.11235">
        <ele>161</ele>
        <time>2017-11-07T01:44:03Z</time>
      </trkpt>
      <trkpt lat="44.51955" lon="1.11256">
        <ele>164</ele>
        <time>2017-11-07T01:46:03Z</time>
      </trkpt>
      <trkpt lat="44.51954" lon="1.11281">
        <ele>165</ele>
        <time>2017-11-07T01:48:03Z</time>
      </trkpt>
      <trkpt lat="44.51958" lon="1.11306">
        <ele>166</ele>
        <time>2017-11-07T01:50:03Z</time>
      </trkpt>
      <trkpt lat="44.51969" lon="1.11326">
        <ele>170</ele>
        <time>2017-11-07T01:52:03Z</time>
      </trkpt>
      <trkpt lat="44.51983" lon="1.11344">
        <ele>173</ele>
        <time>2017-11-07T01:54:03Z</time>
      </trkpt>
      <trkpt lat="44.51998" lon="1.11361">
        <ele>177</ele>
        <time>2017-11-07T01:56:03Z</time>
      </trkpt>
      <trkpt lat="44.52011" lon="1.11381">
        <ele>180</ele>
        <time>2017-11-07T01:58:03Z</time>
      </trkpt>
      <trkpt lat="44.52022" lon="1.11401">
        <ele>183</ele>
        <time>2017-11-07T02:00:03Z</time>
      </trkpt>
      <trkpt lat="44.52034" lon="1.1142">
        <ele>186</ele>
        <time>2017-11-07T02:02:03Z</time>
      </trkpt>
      <trkpt lat="44.52043" lon="1.11442">
        <ele>187</ele>
        <time>2017-11-07T02:04:03Z</time>
      </trkpt>
      <trkpt lat="44.52055" lon="1.11463">
        <ele>189</ele>
        <time>2017-11-07T02:06:03Z</time>
      </trkpt>
      <trkpt lat="44.52069" lon="1.11478">
        <ele>193</ele>
        <time>2017-11-07T02:08:03Z</time>
      </trkpt>
      <trkpt lat="44.52081" lon="1.11499">
        <ele>194</ele>
        <time>2017-11-07T02:10:03Z</time>
      </trkpt>
      <trkpt lat="44.52089" lon="1.11522">
        <ele>194</ele>
        <time>2017-11-07T02:12:03Z</time>
      </trkpt>
      <trkpt lat="44.521" lon="1.11542">
        <ele>195</ele>
        <time>2017-11-07T02:14:03Z</time>
      </trkpt>
      <trkpt lat="44.52107" lon="1.11566">
        <ele>195</ele>
        <time>2017-11-07T02:16:03Z</time>
      </trkpt>
      <trkpt lat="44.52095" lon="1.11585">
        <ele>191</ele>
        <time>2017-11-07T02:18:03Z</time>
      </trkpt>
      <trkpt lat="44.52083" lon="1.11606">
        <ele>189</ele>
        <time>2017-11-07T02:20:03Z</time>
      </trkpt>
      <trkpt lat="44.52079" lon="1.11631">
        <ele>190</ele>
        <time>2017-11-07T02:22:03Z</time>
      </trkpt>
      <trkpt lat="44.52077" lon="1.11657">
        <ele>192</ele>
        <time>2017-11-07T02:24:03Z</time>
      </trkpt>
      <trkpt lat="44.5208" lon="1.11682">
        <ele>196</ele>
        <time>2017-11-07T02:26:03Z</time>
      </trkpt>
      <trkpt lat="44.52082" lon="1.11707">
        <ele>200</ele>
        <time>2017-11-07T02:28:03Z</time>
      </trkpt>
      <trkpt lat="44.52081" lon="1.11734">
        <ele>205</ele>
        <time>2017-11-07T02:30:03Z</time>
      </trkpt>
      <trkpt lat="44.52071" lon="1.11756">
        <ele>207</ele>
        <time>2017-11-07T02:32:03Z</time>
      </trkpt>
      <trkpt lat="44.52066" lon="1.1178">
        <ele>209</ele>
        <time>2017-11-07T02:34:03Z</time>
      </trkpt>
      <trkpt lat="44.5206" lon="1.11804">
        <ele>212</ele>
        <time>2017-11-07T02:36:03Z</time>
      </trkpt>
      <trkpt lat="44.52062" lon="1.1183">
        <ele>217</ele>
        <time>2017-11-07T02:38:03Z</time>
      </trkpt>
      <trkpt lat="44.52065" lon="1.11855">
        <ele>220</ele>
        <time>2017-11-07T02:40:03Z</time>
      </trkpt>
      <trkpt lat="44.52072" lon="1.11879">
        <ele>222</ele>
        <time>2017-11-07T02:42:03Z</time>
      </trkpt>
      <trkpt lat="44.52077" lon="1.11904">
        <ele>225</ele>
        <time>2017-11-07T02:44:03Z</time>
      </trkpt>
      <trkpt lat="44.52077" lon="1.1193">
        <ele>225</ele>
        <time>2017-11-07T02:46:03Z</time>
      </trkpt>
      <trkpt lat="44.52094" lon="1.11944">
        <ele>225</ele>
        <time>2017-11-07T02:48:03Z</time>
      </trkpt>
      <trkpt lat="44.52112" lon="1.11941">
        <ele>226</ele>
        <time>2017-11-07T02:50:03Z</time>
      </trkpt>
      <trkpt lat="44.5213" lon="1.11941">
        <ele>227</ele>
        <time>2017-11-07T02:52:03Z</time>
      </trkpt>
      <trkpt lat="44.52148" lon="1.11949">
        <ele>227</ele>
        <time>2017-11-07T02:54:03Z</time>
      </trkpt>
      <trkpt lat="44.52165" lon="1.11962">
        <ele>227</ele>
        <time>2017-11-07T02:56:03Z</time>
      </trkpt>
      <trkpt lat="44.52181" lon="1.11974">
        <ele>228</ele>
        <time>2017-11-07T02:58:03Z</time>
      </trkpt>
      <trkpt lat="44.52195" lon="1.1199">
        <ele>228</ele>
        <time>2017-11-07T03:00:03Z</time>
      </trkpt>
      <trkpt lat="44.5221" lon="1.12006">
        <ele>228</ele>
        <time>2017-11-07T03:02:03Z</time>
      </trkpt>
      <trkpt lat="44.52224" lon="1.12023">
        <ele>227</ele>
        <time>2017-11-07T03:04:03Z</time>
      </trkpt>
      <trkpt lat="44.52238" lon="1.1204">
        <ele>227</ele>
        <time>2017-11-07T03:06:03Z</time>
      </trkpt>
      <trkpt lat="44.52253" lon="1.12056">
        <ele>227</ele>
        <time>2017-11-07T03:08:03Z</time>
      </trkpt>
      <trkpt lat="44.52264" lon="1.12079">
        <ele>226</ele>
        <time>2017-11-07T03:10:03Z</time>
      </trkpt>
      <trkpt lat="44.52265" lon="1.12105">
        <ele>225</ele>
        <time>2017-11-07T03:12:03Z</time>
      </trkpt>
      <trkpt lat="44.52259" lon="1.12129">
        <ele>223</ele>
        <time>2017-11-07T03:14:03Z</time>
      </trkpt>
      <trkpt lat="44.52243" lon="1.12142">
        <ele>222</ele>
        <time>2017-11-07T03:16:03Z</time>
      </trkpt>
      <trkpt lat="44.52225" lon="1.12149">
        <ele>221</ele>
        <time>2017-11-07T03:18:03Z</time>
      </trkpt>
      <trkpt lat="44.52206" lon="1.12156">
        <ele>220</ele>
        <time>2017-11-07T03:20:03Z</time>
      </trkpt>
      <trkpt lat="44.52189" lon="1.12164">
        <ele>219</ele>
        <time>2017-11-07T03:22:03Z</time>
      </trkpt>
      <trkpt lat="44.52173" lon="1.12175">
        <ele>218</ele>
        <time>2017-11-07T03:24:03Z</time>
      </trkpt>
      <trkpt lat="44.52155" lon="1.12188">
        <ele>217</ele>
        <time>2017-11-07T03:26:03Z</time>
      </trkpt>
      <trkpt lat="44.52137" lon="1.12195">
        <ele>216</ele>
        <time>2017-11-07T03:28:03Z</time>
      </trkpt>
      <trkpt lat="44.5212" lon="1.12209">
        <ele>216</ele>
        <time>2017-11-07T03:30:03Z</time>
      </trkpt>
      <trkpt lat="44.52106" lon="1.12225">
        <ele>215</ele>
        <time>2017-11-07T03:32:03Z</time>
      </trkpt>
      <trkpt lat="44.52091" lon="1.1224">
        <ele>215</ele>
        <time>2017-11-07T03:34:03Z</time>
      </trkpt>
      <trkpt lat="44.52073" lon="1.1225">
        <ele>214</ele>
        <time>2017-11-07T03:36:03Z</time>
      </trkpt>
      <trkpt lat="44.52058" lon="1.12264">
        <ele>210</ele>
        <time>2017-11-07T03:38:03Z</time>
      </trkpt>
      <trkpt lat="44.52049" lon="1.12286">
        <ele>206</ele>
        <time>2017-11-07T03:40:03Z</time>
      </trkpt>
      <trkpt lat="44.52049" lon="1.12312">
        <ele>203</ele>
        <time>2017-11-07T03:42:03Z</time>
      </trkpt>
      <trkpt lat="44.52053" lon="1.12338">
        <ele>202</ele>
        <time>2017-11-07T03:44:03Z</time>
      </trkpt>
      <trkpt lat="44.52064" lon="1.12358">
        <ele>202</ele>
        <time>2017-11-07T03:46:03Z</time>
      </trkpt>
      <trkpt lat="44.5208" lon="1.12372">
        <ele>204</ele>
        <time>2017-11-07T03:48:03Z</time>
      </trkpt>
      <trkpt lat="44.52098" lon="1.12379">
        <ele>206</ele>
        <time>2017-11-07T03:50:03Z</time>
      </trkpt>
      <trkpt lat="44.52098" lon="1.12404">
        <ele>205</ele>
        <time>2017-11-07T03:52:03Z</time>
      </trkpt>
      <trkpt lat="44.52079" lon="1.12405">
        <ele>202</ele>
        <time>2017-11-07T03:54:03Z</time>
      </trkpt>
      <trkpt lat="44.52061" lon="1.12413">
        <ele>198</ele>
        <time>2017-11-07T03:56:03Z</time>
      </trkpt>
      <trkpt lat="44.52044" lon="1.12423">
        <ele>196</ele>
        <time>2017-11-07T03:58:03Z</time>
      </trkpt>
      <trkpt lat="44.52027" lon="1.12432">
        <ele>193</ele>
        <time>2017-11-07T04:00:03Z</time>
      </trkpt>
      <trkpt lat="44.52007" lon="1.12436">
        <ele>189</ele>
        <time>2017-11-07T04:02:03Z</time>
      </trkpt>
      <trkpt lat="44.51995" lon="1.12416">
        <ele>187</ele>
        <time>2017-11-07T04:04:03Z</time>
      </trkpt>
      <trkpt lat="44.51983" lon="1.12397">
        <ele>186</ele>
        <time>2017-11-07T04:06:03Z</time>
      </trkpt>
      <trkpt lat="44.51969" lon="1.12379">
        <ele>185</ele>
        <time>2017-11-07T04:08:03Z</time>
      </trkpt>
      <trkpt lat="44.51961" lon="1.12354">
        <ele>187</ele>
        <time>2017-11-07T04:10:03Z</time>
      </trkpt>
      <trkpt lat="44.51946" lon="1.1234">
        <ele>187</ele>
        <time>2017-11-07T04:12:03Z</time>
      </trkpt>
      <trkpt lat="44.51931" lon="1.12325">
        <ele>188</ele>
        <time>2017-11-07T04:14:03Z</time>
      </trkpt>
      <trkpt lat="44.51916" lon="1.12342">
        <ele>184</ele>
        <time>2017-11-07T04:16:03Z</time>
      </trkpt>
      <trkpt lat="44.51905" lon="1.12365">
        <ele>181</ele>
        <time>2017-11-07T04:18:03Z</time>
      </trkpt>
      <trkpt lat="44.51891" lon="1.12382">
        <ele>179</ele>
        <time>2017-11-07T04:20:03Z</time>
      </trkpt>
      <trkpt lat="44.51879" lon="1.12404">
        <ele>176</ele>
        <time>2017-11-07T04:22:03Z</time>
      </trkpt>
      <trkpt lat="44.5187" lon="1.12426">
        <ele>171</ele>
        <time>2017-11-07T04:24:03Z</time>
      </trkpt>
      <trkpt lat="44.51856" lon="1.12445">
        <ele>167</ele>
        <time>2017-11-07T04:26:03Z</time>
      </trkpt>
      <trkpt lat="44.51846" lon="1.12466">
        <ele>161</ele>
        <time>2017-11-07T04:28:03Z</time>
      </trkpt>
      <trkpt lat="44.51831" lon="1.12481">
        <ele>156</ele>
        <time>2017-11-07T04:30:03Z</time>
      </trkpt>
      <trkpt lat="44.51817" lon="1.12499">
        <ele>151</ele>
        <time>2017-11-07T04:32:03Z</time>
      </trkpt>
      <trkpt lat="44.51801" lon="1.12511">
        <ele>148</ele>
        <time>2017-11-07T04:34:03Z</time>
      </trkpt>
      <trkpt lat="44.51788" lon="1.12529">
        <ele>145</ele>
        <time>2017-11-07T04:36:03Z</time>
      </trkpt>
      <trkpt lat="44.51777" lon="1.1255">
        <ele>140</ele>
        <time>2017-11-07T04:38:03Z</time>
      </trkpt>
      <trkpt lat="44.51761" lon="1.12563">
        <ele>137</ele>
        <time>2017-11-07T04:40:03Z</time>
      </trkpt>
      <trkpt lat="44.51744" lon="1.12572">
        <ele>135</ele>
        <time>2017-11-07T04:42:03Z</time>
      </trkpt>
      <trkpt lat="44.51726" lon="1.12568">
        <ele>135</ele>
        <time>2017-11-07T04:44:03Z</time>
      </trkpt>
      <trkpt lat="44.51708" lon="1.12577">
        <ele>132</ele>
        <time>2017-11-07T04:46:03Z</time>
      </trkpt>
      <trkpt lat="44.51691" lon="1.12588">
        <ele>130</ele>
        <time>2017-11-07T04:48:03Z</time>
      </trkpt>
      <trkpt lat="44.51673" lon="1.12593">
        <ele>128</ele>
        <time>2017-11-07T04:50:03Z</time>
      </trkpt>
      <trkpt lat="44.51655" lon="1.12598">
        <ele>128</ele>
        <time>2017-11-07T04:52:03Z</time>
      </trkpt>
      <trkpt lat="44.51635" lon="1.12605">
        <ele>127</ele>
        <time>2017-11-07T04:54:03Z</time>
      </trkpt>
      <trkpt lat="44.51599" lon="1.12596">
        <ele>127</ele>
        <time>2017-11-07T04:56:03Z</time>
      </trkpt>
      <trkpt lat="44.51562" lon="1.12603">
        <ele>128</ele>
        <time>2017-11-07T04:58:03Z</time>
      </trkpt>
      <trkpt lat="44.51545" lon="1.12613">
        <ele>129</ele>
        <time>2017-11-07T05:00:03Z</time>
      </trkpt>
      <trkpt lat="44.51528" lon="1.12626">
        <ele>128</ele>
        <time>2017-11-07T05:02:03Z</time>
      </trkpt>
      <trkpt lat="44.51515" lon="1.12644">
        <ele>125</ele>
        <time>2017-11-07T05:04:03Z</time>
      </trkpt>
      <trkpt lat="44.51498" lon="1.12656">
        <ele>123</ele>
        <time>2017-11-07T05:06:03Z</time>
      </trkpt>
      <trkpt lat="44.51485" lon="1.12676">
        <ele>121</ele>
        <time>2017-11-07T05:08:03Z</time>
      </trkpt>
      <trkpt lat="44.5147" lon="1.12692">
        <ele>120</ele>
        <time>2017-11-07T05:10:03Z</time>
      </trkpt>
      <trkpt lat="44.51455" lon="1.12707">
        <ele>119</ele>
        <time>2017-11-07T05:12:03Z</time>
      </trkpt>
      <trkpt lat="44.51442" lon="1.12726">
        <ele>117</ele>
        <time>2017-11-07T05:14:03Z</time>
      </trkpt>
      <trkpt lat="44.51426" lon="1.12742">
        <ele>114</ele>
        <time>2017-11-07T05:16:03Z</time>
      </trkpt>
      <trkpt lat="44.51408" lon="1.12743">
        <ele>114</ele>
        <time>2017-11-07T05:18:03Z</time>
      </trkpt>
      <trkpt lat="44.5139" lon="1.12734">
        <ele>115</ele>
        <time>2017-11-07T05:20:03Z</time>
      </trkpt>
      <trkpt lat="44.5137" lon="1.12738">
        <ele>114</ele>
        <time>2017-11-07T05:22:03Z</time>
      </trkpt>
      <trkpt lat="44.51362" lon="1.12761">
        <ele>113</ele>
        <time>2017-11-07T05:24:03Z</time>
      </trkpt>
      <trkpt lat="44.5135" lon="1.1278">
        <ele>114</ele>
        <time>2017-11-07T05:26:03Z</time>
      </trkpt>
      <trkpt lat="44.51333" lon="1.1279">
        <ele>114</ele>
        <time>2017-11-07T05:28:03Z</time>
      </trkpt>
      <trkpt lat="44.51314" lon="1.12794">
        <ele>113</ele>
        <time>2017-11-07T05:30:03Z</time>
      </trkpt>
      <trkpt lat="44.51298" lon="1.12808">
        <ele>113</ele>
        <time>2017-11-07T05:32:03Z</time>
      </trkpt>
      <trkpt lat="44.51282" lon="1.12819">
        <ele>113</ele>
        <time>2017-11-07T05:34:03Z</time>
      </trkpt>
      <trkpt lat="44.51264" lon="1.1281">
        <ele>111</ele>
        <time>2017-11-07T05:36:03Z</time>
      </trkpt>
      <trkpt lat="44.51245" lon="1.12811">
        <ele>109</ele>
        <time>2017-11-07T05:38:03Z</time>
      </trkpt>
      <trkpt lat="44.51226" lon="1.12809">
        <ele>108</ele>
        <time>2017-11-07T05:40:03Z</time>
      </trkpt>
      <trkpt lat="44.51208" lon="1.12807">
        <ele>108</ele>
        <time>2017-11-07T05:42:03Z</time>
      </trkpt>
      <trkpt lat="44.51189" lon="1.12808">
        <ele>107</ele>
        <time>2017-11-07T05:44:03Z</time>
      </trkpt>
      <trkpt lat="44.51171" lon="1.1281">
        <ele>106</ele>
        <time>2017-11-07T05:46:03Z</time>
      </trkpt>
      <trkpt lat="44.51153" lon="1.12811">
        <ele>105</ele>
        <time>2017-11-07T05:48:03Z</time>
      </trkpt>
      <trkpt lat="44.51134" lon="1.12812">
        <ele>104</ele>
        <time>2017-11-07T05:50:03Z</time>
      </trkpt>
      <trkpt lat="44.51116" lon="1.12819">
        <ele>103</ele>
        <time>2017-11-07T05:52:03Z</time>
      </trkpt>
      <trkpt lat="44.51098" lon="1.12816">
        <ele>102</ele>
        <time>2017-11-07T05:54:03Z</time>
      </trkpt>
      <trkpt lat="44.51079" lon="1.1282">
        <ele>101</ele>
        <time>2017-11-07T05:56:03Z</time>
      </trkpt>
      <trkpt lat="44.51061" lon="1.12827">
        <ele>99</ele>
        <time>2017-11-07T05:58:03Z</time>
      </trkpt>
      <trkpt lat="44.51043" lon="1.12829">
        <ele>97</ele>
        <time>2017-11-07T06:00:03Z</time>
      </trkpt>
      <trkpt lat="44.51023" lon="1.12829">
        <ele>94</ele>
        <time>2017-11-07T06:02:03Z</time>
      </trkpt>
      <trkpt lat="44.51005" lon="1.12835">
        <ele>93</ele>
        <time>2017-11-07T06:04:03Z</time>
      </trkpt>
      <trkpt lat="44.50994" lon="1.12856">
        <ele>95</ele>
        <time>2017-11-07T06:06:03Z</time>
      </trkpt>
      <trkpt lat="44.50991" lon="1.12881">
        <ele>98</ele>
        <time>2017-11-07T06:08:03Z</time>
      </trkpt>
      <trkpt lat="44.50985" lon="1.12907">
        <ele>101</ele>
        <time>2017-11-07T06:10:03Z</time>
      </trkpt>
      <trkpt lat="44.50982" lon="1.12932">
        <ele>103</ele>
        <time>2017-11-07T06:12:03Z</time>
      </trkpt>
      <trkpt lat="44.50983" lon="1.12957">
        <ele>106</ele>
        <time>2017-11-07T06:14:03Z</time>
      </trkpt>
      <trkpt lat="44.5099" lon="1.12982">
        <ele>110</ele>
        <time>2017-11-07T06:16:03Z</time>
      </trkpt>
      <trkpt lat="44.50995" lon="1.13007">
        <ele>112</ele>
        <time>2017-11-07T06:18:03Z</time>
      </trkpt>
      <trkpt lat="44.50995" lon="1.13032">
        <ele>114</ele>
        <time>2017-11-07T06:20:03Z</time>
      </trkpt>
      <trkpt lat="44.50992" lon="1.13057">
        <ele>116</ele>
        <time>2017-11-07T06:22:03Z</time>
      </trkpt>
      <trkpt lat="44.50989" lon="1.13082">
        <ele>118</ele>
        <time>2017-11-07T06:24:03Z</time>
      </trkpt>
      <trkpt lat="44.50984" lon="1.13107">
        <ele>120</ele>
        <time>2017-11-07T06:26:03Z</time>
      </trkpt>
      <trkpt lat="44.50985" lon="1.13133">
        <ele>122</ele>
        <time>2017-11-07T06:28:03Z</time>
      </trkpt>
      <trkpt lat="44.50982" lon="1.13158">
        <ele>125</ele>
        <time>2017-11-07T06:30:03Z</time>
      </trkpt>
      <trkpt lat="44.50966" lon="1.13172">
        <ele>125</ele>
        <time>2017-11-07T06:32:03Z</time>
      </trkpt>
      <trkpt lat="44.50961" lon="1.13196">
        <ele>125</ele>
        <time>2017-11-07T06:34:03Z</time>
      </trkpt>
      <trkpt lat="44.50962" lon="1.13222">
        <ele>126</ele>
        <time>2017-11-07T06:36:03Z</time>
      </trkpt>
      <trkpt lat="44.50961" lon="1.13247">
        <ele>127</ele>
        <time>2017-11-07T06:38:03Z</time>
      </trkpt>
      <trkpt lat="44.50962" lon="1.13273">
        <ele>127</ele>
        <time>2017-11-07T06:40:03Z</time>
      </trkpt>
      <trkpt lat="44.50966" lon="1.13299">
        <ele>128</ele>
        <time>2017-11-07T06:42:03Z</time>
      </trkpt>
      <trkpt lat="44.50965" lon="1.13326">
        <ele>129</ele>
        <time>2017-11-07T06:44:03Z</time>
      </trkpt>
      <trkpt lat="44.50969" lon="1.13353">
        <ele>130</ele>
        <time>2017-11-07T06:46:03Z</time>
      </trkpt>
      <trkpt lat="44.50961" lon="1.13376">
        <ele>131</ele>
        <time>2017-11-07T06:48:03Z</time>
      </trkpt>
      <trkpt lat="44.50949" lon="1.13397">
        <ele>133</ele>
        <time>2017-11-07T06:50:03Z</time>
      </trkpt>
      <trkpt lat="44.50936" lon="1.13417">
        <ele>135</ele>
        <time>2017-11-07T06:52:03Z</time>
      </trkpt>
      <trkpt lat="44.50923" lon="1.13435">
        <ele>137</ele>
        <time>2017-11-07T06:54:03Z</time>
      </trkpt>
      <trkpt lat="44.50909" lon="1.13451">
        <ele>137</ele>
        <time>2017-11-07T06:56:03Z</time>
      </trkpt>
      <trkpt lat="44.50895" lon="1.13469">
        <ele>138</ele>
        <time>2017-11-07T06:58:03Z</time>
      </trkpt>
      <trkpt lat="44.50881" lon="1.13488">
        <ele>139</ele>
        <time>2017-11-07T07:00:03Z</time>
      </trkpt>
      <trkpt lat="44.50871" lon="1.1351">
        <ele>140</ele>
        <time>2017-11-07T07:02:03Z</time>
      </trkpt>
      <trkpt lat="44.50857" lon="1.13527">
        <ele>140</ele>
        <time>2017-11-07T07:04:03Z</time>
      </trkpt>
      <trkpt lat="44.50843" lon="1.13543">
        <ele>140</ele>
        <time>2017-11-07T07:06:03Z</time>
      </trkpt>
      <trkpt lat="44.50829" lon="1.1356">
        <ele>140</ele>
        <time>2017-11-07T07:08:03Z</time>
      </trkpt>
      <trkpt lat="44.50822" lon="1.13585">
        <ele>141</ele>
        <time>2017-11-07T07:10:03Z</time>
      </trkpt>
      <trkpt lat="44.50814" lon="1.13609">
        <ele>140</ele>
        <time>2017-11-07T07:12:03Z</time>
      </trkpt>
      <trkpt lat="44.50796" lon="1.13617">
        <ele>140</ele>
        <time>2017-11-07T07:14:03Z</time>
      </trkpt>
      <trkpt lat="44.50779" lon="1.13608">
        <ele>139</ele>
        <time>2017-11-07T07:16:03Z</time>
      </trkpt>
      <trkpt lat="44.50764" lon="1.13594">
        <ele>139</ele>
        <time>2017-11-07T07:18:03Z</time>
      </trkpt>
      <trkpt lat="44.50746" lon="1.13583">
        <ele>138</ele>
        <time>2017-11-07T07:20:03Z</time>
      </trkpt>
      <trkpt lat="44.5073" lon="1.13571">
        <ele>136</ele>
        <time>2017-11-07T07:22:03Z</time>
      </trkpt>
      <trkpt lat="44.50713" lon="1.13562">
        <ele>135</ele>
        <time>2017-11-07T07:24:03Z</time>
      </trkpt>
      <trkpt lat="44.50696" lon="1.13548">
        <ele>134</ele>
        <time>2017-11-07T07:26:03Z</time>
      </trkpt>
      <trkpt lat="44.5068" lon="1.13536">
        <ele>133</ele>
        <time>2017-11-07T07:28:03Z</time>
      </trkpt>
      <trkpt lat="44.50664" lon="1.13524">
        <ele>133</ele>
        <time>2017-11-07T07:30:03Z</time>
      </trkpt>
      <trkpt lat="44.50645" lon="1.1352">
        <ele>131</ele>
        <time>2017-11-07T07:32:03Z</time>
      </trkpt>
      <trkpt lat="44.50627" lon="1.13523">
        <ele>130</ele>
        <time>2017-11-07T07:34:03Z</time>
      </trkpt>
      <trkpt lat="44.50611" lon="1.13536">
        <ele>128</ele>
        <time>2017-11-07T07:36:03Z</time>
      </trkpt>
      <trkpt lat="44.50592" lon="1.13539">
        <ele>127</ele>
        <time>2017-11-07T07:38:03Z</time>
      </trkpt>
      <trkpt lat="44.50575" lon="1.13551">
        <ele>125</ele>
        <time>2017-11-07T07:40:03Z</time>
      </trkpt>
      <trkpt lat="44.50558" lon="1.13562">
        <ele>124</ele>
        <time>2017-11-07T07:42:03Z</time>
      </trkpt>
      <trkpt lat="44.50542" lon="1.13575">
        <ele>123</ele>
        <time>2017-11-07T07:44:03Z</time>
      </trkpt>
      <trkpt lat="44.50528" lon="1.1359">
        <ele>123</ele>
        <time>2017-11-07T07:46:03Z</time>
      </trkpt>
      <trkpt lat="44.5051" lon="1.13596">
        <ele>122</ele>
        <time>2017-11-07T07:48:03Z</time>
      </trkpt>
      <trkpt lat="44.50493" lon="1.13607">
        <ele>121</ele>
        <time>2017-11-07T07:50:03Z</time>
      </trkpt>
      <trkpt lat="44.50472" lon="1.1361">
        <ele>119</ele>
        <time>2017-11-07T07:52:03Z</time>
      </trkpt>
      <trkpt lat="44.50454" lon="1.13611">
        <ele>116</ele>
        <time>2017-11-07T07:54:03Z</time>
      </trkpt>
      <trkpt lat="44.50437" lon="1.13622">
        <ele>115</ele>
        <time>2017-11-07T07:56:03Z</time>
      </trkpt>
      <trkpt lat="44.50421" lon="1.13638">
        <ele>114</ele>
        <time>2017-11-07T07:58:03Z</time>
      </trkpt>
      <trkpt lat="44.50403" lon="1.13627">
        <ele>109</ele>
        <time>2017-11-07T08:00:03Z</time>
      </trkpt>
      <trkpt lat="44.50384" lon="1.13633">
        <ele>105</ele>
        <time>2017-11-07T08:02:03Z</time>
      </trkpt>
      <trkpt lat="44.50367" lon="1.13641">
        <ele>101</ele>
        <time>2017-11-07T08:04:03Z</time>
      </trkpt>
      <trkpt lat="44.50362" lon="1.13665">
        <ele>102</ele>
        <time>2017-11-07T08:06:03Z</time>
      </trkpt>
      <trkpt lat="44.50347" lon="1.1368">
        <ele>99</ele>
        <time>2017-11-07T08:08:03Z</time>
      </trkpt>
      <trkpt lat="44.50329" lon="1.13685">
        <ele>96</ele>
        <time>2017-11-07T08:10:03Z</time>
      </trkpt>
      <trkpt lat="44.5032" lon="1.13662">
        <ele>93</ele>
        <time>2017-11-07T08:12:03Z</time>
      </trkpt>
      <trkpt lat="44.50307" lon="1.13644">
        <ele>90</ele>
        <time>2017-11-07T08:14:03Z</time>
      </trkpt>
      <trkpt lat="44.50289" lon="1.13651">
        <ele>87</ele>
        <time>2017-11-07T08:16:03Z</time>
      </trkpt>
      <trkpt lat="44.50272" lon="1.1366">
        <ele>85</ele>
        <time>2017-11-07T08:18:03Z</time>
      </trkpt>
      <trkpt lat="44.50253" lon="1.13669">
        <ele>83</ele>
        <time>2017-11-07T08:20:03Z</time>
      </trkpt>
      <trkpt lat="44.50252" lon="1.13696">
        <ele>84</ele>
        <time>2017-11-07T08:22:03Z</time>
      </trkpt>
      <trkpt lat="44.50253" lon="1.13722">
        <ele>86</ele>
        <time>2017-11-07T08:24:03Z</time>
      </trkpt>
      <trkpt lat="44.50271" lon="1.13728">
        <ele>90</ele>
        <time>2017-11-07T08:26:03Z</time>
      </trkpt>
      <trkpt lat="44.50252" lon="1.13735">
        <ele>86</ele>
        <time>2017-11-07T08:28:03Z</time>
      </trkpt>
      <trkpt lat="44.50237" lon="1.13748">
        <ele>87</ele>
        <time>2017-11-07T08:30:03Z</time>
      </trkpt>
      <trkpt lat="44.50218" lon="1.13744">
        <ele>87</ele>
        <time>2017-11-07T08:32:03Z</time>
      </trkpt>
      <trkpt lat="44.50212" lon="1.1372">
        <ele>86</ele>
        <time>2017-11-07T08:34:03Z</time>
      </trkpt>
      <trkpt lat="44.50202" lon="1.13696">
        <ele>84</ele>
        <time>2017-11-07T08:36:03Z</time>
      </trkpt>
      <trkpt lat="44.50196" lon="1.1367">
        <ele>82</ele>
        <time>2017-11-07T08:38:03Z</time>
      </trkpt>
      <trkpt lat="44.5019" lon="1.13645">
        <ele>82</ele>
        <time>2017-11-07T08:40:03Z</time>
      </trkpt>
      <trkpt lat="44.50185" lon="1.1362">
        <ele>82</ele>
        <time>2017-11-07T08:42:03Z</time>
      </trkpt>
      <trkpt lat="44.50176" lon="1.13568">
        <ele>81</ele>
        <time>2017-11-07T08:44:03Z</time>
      </trkpt>
      <trkpt lat="44.5019" lon="1.13552">
        <ele>82</ele>
        <time>2017-11-07T08:46:03Z</time>
      </trkpt>
      <trkpt lat="44.50208" lon="1.13542">
        <ele>82</ele>
        <time>2017-11-07T08:48:03Z</time>
      </trkpt>
      <trkpt lat="44.50223" lon="1.13528">
        <ele>81</ele>
        <time>2017-11-07T08:50:03Z</time>
      </trkpt>
      <trkpt lat="44.50241" lon="1.13521">
        <ele>81</ele>
        <time>2017-11-07T08:52:03Z</time>
      </trkpt>
      <trkpt lat="44.5026" lon="1.13517">
        <ele>81</ele>
        <time>2017-11-07T08:54:03Z</time>
      </trkpt>
      <trkpt lat="44.50276" lon="1.13505">
        <ele>81</ele>
        <time>2017-11-07T08:56:03Z</time>
      </trkpt>
      <trkpt lat="44.50285" lon="1.13483">
        <ele>81</ele>
        <time>2017-11-07T08:58:03Z</time>
      </trkpt>
      <trkpt lat="44.50284" lon="1.13456">
        <ele>82</ele>
        <time>2017-11-07T09:00:03Z</time>
      </trkpt>
      <trkpt lat="44.50277" lon="1.13433">
        <ele>83</ele>
        <time>2017-11-07T09:02:03Z</time>
      </trkpt>
      <trkpt lat="44.50271" lon="1.13407">
        <ele>83</ele>
        <time>2017-11-07T09:04:03Z</time>
      </trkpt>
    </trkseg>
  </trk>
</gpx>